<?xml version="1.0" encoding="UTF-8"?>
<gpx
 version="1.0"
creator="GPSBabel - http://www.gpsbabel.org"
xmlns:xsi="http://www.w3.org/2001/XMLSchema-instance"
xmlns="http://www.topografix.com/GPX/1/0"
xsi:schemaLocation="http://www.topografix.com/GPX/1/0 http://www.topografix.com/GPX/1/0/gpx.xsd">
<time>2018-06-28T17:19:24Z</time>
<bounds minlat="44.797960090" minlon="6.440216690" maxlat="44.817158330" maxlon="6.468593450"/>
<trk>
<trkseg>
<trkpt lat="44.816363390" lon="6.455503440">
  <ele>1790.300048</ele>
<time>2018-06-28T12:15:31Z</time>
</trkpt>
<trkpt lat="44.816196590" lon="6.455335970">
  <ele>1778.000000</ele>
<time>2018-06-28T12:15:58Z</time>
</trkpt>
<trkpt lat="44.816115120" lon="6.455368490">
  <ele>1781.500000</ele>
<time>2018-06-28T12:16:06Z</time>
</trkpt>
<trkpt lat="44.816105060" lon="6.455490030">
  <ele>1786.099975</ele>
<time>2018-06-28T12:16:15Z</time>
</trkpt>
<trkpt lat="44.816020070" lon="6.455518360">
  <ele>1788.800048</ele>
<time>2018-06-28T12:16:27Z</time>
</trkpt>
<trkpt lat="44.815950000" lon="6.455520030">
  <ele>1790.500000</ele>
<time>2018-06-28T12:16:33Z</time>
</trkpt>
<trkpt lat="44.815861820" lon="6.455503440">
  <ele>1796.199951</ele>
<time>2018-06-28T12:16:43Z</time>
</trkpt>
<trkpt lat="44.815780010" lon="6.455515000">
  <ele>1798.599975</ele>
<time>2018-06-28T12:16:52Z</time>
</trkpt>
<trkpt lat="44.815700050" lon="6.455470080">
  <ele>1801.000000</ele>
<time>2018-06-28T12:17:03Z</time>
</trkpt>
<trkpt lat="44.815628470" lon="6.455403360">
  <ele>1802.900024</ele>
<time>2018-06-28T12:17:09Z</time>
</trkpt>
<trkpt lat="44.815576670" lon="6.455306800">
  <ele>1806.699951</ele>
<time>2018-06-28T12:17:20Z</time>
</trkpt>
<trkpt lat="44.815516820" lon="6.455236720">
  <ele>1810.900024</ele>
<time>2018-06-28T12:17:32Z</time>
</trkpt>
<trkpt lat="44.815441720" lon="6.455175030">
  <ele>1814.500000</ele>
<time>2018-06-28T12:17:41Z</time>
</trkpt>
<trkpt lat="44.815368460" lon="6.455115020">
  <ele>1817.400024</ele>
<time>2018-06-28T12:17:51Z</time>
</trkpt>
<trkpt lat="44.815303420" lon="6.455028350">
  <ele>1821.900024</ele>
<time>2018-06-28T12:18:02Z</time>
</trkpt>
<trkpt lat="44.815313480" lon="6.454910000">
  <ele>1826.599975</ele>
<time>2018-06-28T12:18:13Z</time>
</trkpt>
<trkpt lat="44.815260000" lon="6.454810090">
  <ele>1829.699951</ele>
<time>2018-06-28T12:18:24Z</time>
</trkpt>
<trkpt lat="44.815203340" lon="6.454721740">
  <ele>1831.099975</ele>
<time>2018-06-28T12:18:35Z</time>
</trkpt>
<trkpt lat="44.815131760" lon="6.454671780">
  <ele>1831.900024</ele>
<time>2018-06-28T12:18:43Z</time>
</trkpt>
<trkpt lat="44.815055150" lon="6.454626690">
  <ele>1832.500000</ele>
<time>2018-06-28T12:18:51Z</time>
</trkpt>
<trkpt lat="44.815000160" lon="6.454528450">
  <ele>1833.300048</ele>
<time>2018-06-28T12:19:00Z</time>
</trkpt>
<trkpt lat="44.814926730" lon="6.454463410">
  <ele>1835.599975</ele>
<time>2018-06-28T12:19:12Z</time>
</trkpt>
<trkpt lat="44.814853480" lon="6.454400040">
  <ele>1838.400024</ele>
<time>2018-06-28T12:19:23Z</time>
</trkpt>
<trkpt lat="44.814783400" lon="6.454331810">
  <ele>1842.599975</ele>
<time>2018-06-28T12:19:35Z</time>
</trkpt>
<trkpt lat="44.814741660" lon="6.454228380">
  <ele>1846.900024</ele>
<time>2018-06-28T12:19:44Z</time>
</trkpt>
<trkpt lat="44.814864540" lon="6.454139530">
  <ele>1863.000000</ele>
<time>2018-06-28T12:19:58Z</time>
</trkpt>
<trkpt lat="44.814798490" lon="6.454056720">
  <ele>1873.699951</ele>
<time>2018-06-28T12:20:10Z</time>
</trkpt>
<trkpt lat="44.814728420" lon="6.453985140">
  <ele>1879.000000</ele>
<time>2018-06-28T12:20:19Z</time>
</trkpt>
<trkpt lat="44.814681820" lon="6.453878350">
  <ele>1880.699951</ele>
<time>2018-06-28T12:20:31Z</time>
</trkpt>
<trkpt lat="44.814620120" lon="6.453790010">
  <ele>1884.599975</ele>
<time>2018-06-28T12:20:44Z</time>
</trkpt>
<trkpt lat="44.814550050" lon="6.453736700">
  <ele>1886.599975</ele>
<time>2018-06-28T12:20:52Z</time>
</trkpt>
<trkpt lat="44.814501770" lon="6.453631760">
  <ele>1886.599975</ele>
<time>2018-06-28T12:21:00Z</time>
</trkpt>
<trkpt lat="44.814446790" lon="6.453541740">
  <ele>1886.300048</ele>
<time>2018-06-28T12:21:09Z</time>
</trkpt>
<trkpt lat="44.814395150" lon="6.453451710">
  <ele>1886.900024</ele>
<time>2018-06-28T12:21:17Z</time>
</trkpt>
<trkpt lat="44.814320050" lon="6.453390020">
  <ele>1890.000000</ele>
<time>2018-06-28T12:21:26Z</time>
</trkpt>
<trkpt lat="44.814255010" lon="6.453316770">
  <ele>1892.599975</ele>
<time>2018-06-28T12:21:35Z</time>
</trkpt>
<trkpt lat="44.814190130" lon="6.453235130">
  <ele>1894.900024</ele>
<time>2018-06-28T12:21:44Z</time>
</trkpt>
<trkpt lat="44.814135150" lon="6.453153490">
  <ele>1897.699951</ele>
<time>2018-06-28T12:21:52Z</time>
</trkpt>
<trkpt lat="44.814085020" lon="6.453071680">
  <ele>1897.400024</ele>
<time>2018-06-28T12:21:59Z</time>
</trkpt>
<trkpt lat="44.814026690" lon="6.452991720">
  <ele>1898.099975</ele>
<time>2018-06-28T12:22:07Z</time>
</trkpt>
<trkpt lat="44.813988460" lon="6.452890130">
  <ele>1898.500000</ele>
<time>2018-06-28T12:22:18Z</time>
</trkpt>
<trkpt lat="44.813965000" lon="6.452776800">
  <ele>1900.000000</ele>
<time>2018-06-28T12:22:27Z</time>
</trkpt>
<trkpt lat="44.813896770" lon="6.452715110">
  <ele>1901.199951</ele>
<time>2018-06-28T12:22:34Z</time>
</trkpt>
<trkpt lat="44.813841780" lon="6.452628440">
  <ele>1900.599975</ele>
<time>2018-06-28T12:22:41Z</time>
</trkpt>
<trkpt lat="44.813778410" lon="6.452543450">
  <ele>1899.000000</ele>
<time>2018-06-28T12:22:48Z</time>
</trkpt>
<trkpt lat="44.813721750" lon="6.452463490">
  <ele>1898.300048</ele>
<time>2018-06-28T12:22:55Z</time>
</trkpt>
<trkpt lat="44.813676830" lon="6.452358380">
  <ele>1898.300048</ele>
<time>2018-06-28T12:23:03Z</time>
</trkpt>
<trkpt lat="44.813615130" lon="6.452273390">
  <ele>1899.000000</ele>
<time>2018-06-28T12:23:12Z</time>
</trkpt>
<trkpt lat="44.813561830" lon="6.452183360">
  <ele>1900.000000</ele>
<time>2018-06-28T12:23:21Z</time>
</trkpt>
<trkpt lat="44.813496780" lon="6.452116810">
  <ele>1900.900024</ele>
<time>2018-06-28T12:23:32Z</time>
</trkpt>
<trkpt lat="44.813433410" lon="6.452041710">
  <ele>1903.699951</ele>
<time>2018-06-28T12:23:40Z</time>
</trkpt>
<trkpt lat="44.813378430" lon="6.451953370">
  <ele>1906.599975</ele>
<time>2018-06-28T12:23:48Z</time>
</trkpt>
<trkpt lat="44.813310030" lon="6.451886810">
  <ele>1905.000000</ele>
<time>2018-06-28T12:23:57Z</time>
</trkpt>
<trkpt lat="44.813256720" lon="6.451786730">
  <ele>1905.699951</ele>
<time>2018-06-28T12:24:09Z</time>
</trkpt>
<trkpt lat="44.813235100" lon="6.451666700">
  <ele>1905.900024</ele>
<time>2018-06-28T12:24:18Z</time>
</trkpt>
<trkpt lat="44.813160000" lon="6.451603340">
  <ele>1907.000000</ele>
<time>2018-06-28T12:24:27Z</time>
</trkpt>
<trkpt lat="44.813100150" lon="6.451521700">
  <ele>1908.199951</ele>
<time>2018-06-28T12:24:38Z</time>
</trkpt>
<trkpt lat="44.813051700" lon="6.451415080">
  <ele>1908.800048</ele>
<time>2018-06-28T12:24:48Z</time>
</trkpt>
<trkpt lat="44.812981800" lon="6.451348360">
  <ele>1909.699951</ele>
<time>2018-06-28T12:24:58Z</time>
</trkpt>
<trkpt lat="44.812905020" lon="6.451311810">
  <ele>1910.400024</ele>
<time>2018-06-28T12:25:07Z</time>
</trkpt>
<trkpt lat="44.812831760" lon="6.451243420">
  <ele>1911.599975</ele>
<time>2018-06-28T12:25:17Z</time>
</trkpt>
<trkpt lat="44.812758340" lon="6.451173350">
  <ele>1913.500000</ele>
<time>2018-06-28T12:25:31Z</time>
</trkpt>
<trkpt lat="44.812723470" lon="6.451066730">
  <ele>1914.599975</ele>
<time>2018-06-28T12:25:42Z</time>
</trkpt>
<trkpt lat="44.812701670" lon="6.450951730">
  <ele>1916.500000</ele>
<time>2018-06-28T12:25:54Z</time>
</trkpt>
<trkpt lat="44.812625060" lon="6.450891710">
  <ele>1918.000000</ele>
<time>2018-06-28T12:26:07Z</time>
</trkpt>
<trkpt lat="44.812551810" lon="6.450826670">
  <ele>1919.300048</ele>
<time>2018-06-28T12:26:19Z</time>
</trkpt>
<trkpt lat="44.812475030" lon="6.450778390">
  <ele>1921.099975</ele>
<time>2018-06-28T12:26:32Z</time>
</trkpt>
<trkpt lat="44.812411830" lon="6.450696750">
  <ele>1922.900024</ele>
<time>2018-06-28T12:26:44Z</time>
</trkpt>
<trkpt lat="44.812335050" lon="6.450641760">
  <ele>1925.099975</ele>
<time>2018-06-28T12:26:57Z</time>
</trkpt>
<trkpt lat="44.812255090" lon="6.450598350">
  <ele>1926.300048</ele>
<time>2018-06-28T12:27:08Z</time>
</trkpt>
<trkpt lat="44.812171770" lon="6.450575040">
  <ele>1928.199951</ele>
<time>2018-06-28T12:27:19Z</time>
</trkpt>
<trkpt lat="44.812120140" lon="6.450485020">
  <ele>1930.699951</ele>
<time>2018-06-28T12:27:32Z</time>
</trkpt>
<trkpt lat="44.812096670" lon="6.450370020">
  <ele>1931.599975</ele>
<time>2018-06-28T12:27:42Z</time>
</trkpt>
<trkpt lat="44.812086780" lon="6.450245130">
  <ele>1931.900024</ele>
<time>2018-06-28T12:27:52Z</time>
</trkpt>
<trkpt lat="44.812055090" lon="6.450133490">
  <ele>1933.300048</ele>
<time>2018-06-28T12:28:03Z</time>
</trkpt>
<trkpt lat="44.812006810" lon="6.450028380">
  <ele>1934.400024</ele>
<time>2018-06-28T12:28:14Z</time>
</trkpt>
<trkpt lat="44.812000110" lon="6.449911700">
  <ele>1935.000000</ele>
<time>2018-06-28T12:28:25Z</time>
</trkpt>
<trkpt lat="44.811940100" lon="6.449820000">
  <ele>1936.599975</ele>
<time>2018-06-28T12:28:37Z</time>
</trkpt>
<trkpt lat="44.811858460" lon="6.449785130">
  <ele>1938.199951</ele>
<time>2018-06-28T12:28:49Z</time>
</trkpt>
<trkpt lat="44.811795090" lon="6.449696790">
  <ele>1939.699951</ele>
<time>2018-06-28T12:29:00Z</time>
</trkpt>
<trkpt lat="44.811765080" lon="6.449578440">
  <ele>1940.500000</ele>
<time>2018-06-28T12:29:10Z</time>
</trkpt>
<trkpt lat="44.811706740" lon="6.449486740">
  <ele>1942.300048</ele>
<time>2018-06-28T12:29:21Z</time>
</trkpt>
<trkpt lat="44.811671710" lon="6.449370060">
  <ele>1943.400024</ele>
<time>2018-06-28T12:29:30Z</time>
</trkpt>
<trkpt lat="44.811648400" lon="6.449255060">
  <ele>1944.000000</ele>
<time>2018-06-28T12:29:38Z</time>
</trkpt>
<trkpt lat="44.811613370" lon="6.449141740">
  <ele>1944.800048</ele>
<time>2018-06-28T12:29:47Z</time>
</trkpt>
<trkpt lat="44.811561740" lon="6.449050040">
  <ele>1945.900024</ele>
<time>2018-06-28T12:29:57Z</time>
</trkpt>
<trkpt lat="44.811501720" lon="6.448963370">
  <ele>1947.400024</ele>
<time>2018-06-28T12:30:07Z</time>
</trkpt>
<trkpt lat="44.811415050" lon="6.448943420">
  <ele>1949.000000</ele>
<time>2018-06-28T12:30:17Z</time>
</trkpt>
<trkpt lat="44.811350010" lon="6.448873350">
  <ele>1950.300048</ele>
<time>2018-06-28T12:30:27Z</time>
</trkpt>
<trkpt lat="44.811288490" lon="6.448793390">
  <ele>1951.900024</ele>
<time>2018-06-28T12:30:37Z</time>
</trkpt>
<trkpt lat="44.811238360" lon="6.448693480">
  <ele>1953.500000</ele>
<time>2018-06-28T12:30:48Z</time>
</trkpt>
<trkpt lat="44.811195110" lon="6.448593400">
  <ele>1955.300048</ele>
<time>2018-06-28T12:30:59Z</time>
</trkpt>
<trkpt lat="44.811141800" lon="6.448505050">
  <ele>1957.199951</ele>
<time>2018-06-28T12:31:12Z</time>
</trkpt>
<trkpt lat="44.811076760" lon="6.448421730">
  <ele>1957.500000</ele>
<time>2018-06-28T12:31:23Z</time>
</trkpt>
<trkpt lat="44.811021770" lon="6.448325010">
  <ele>1957.599975</ele>
<time>2018-06-28T12:31:33Z</time>
</trkpt>
<trkpt lat="44.810936780" lon="6.448306730">
  <ele>1958.800048</ele>
<time>2018-06-28T12:31:48Z</time>
</trkpt>
<trkpt lat="44.810860000" lon="6.448241690">
  <ele>1960.500000</ele>
<time>2018-06-28T12:32:00Z</time>
</trkpt>
<trkpt lat="44.810776690" lon="6.448221740">
  <ele>1962.900024</ele>
<time>2018-06-28T12:32:13Z</time>
</trkpt>
<trkpt lat="44.810730080" lon="6.448120150">
  <ele>1964.300048</ele>
<time>2018-06-28T12:32:24Z</time>
</trkpt>
<trkpt lat="44.810688340" lon="6.448013370">
  <ele>1965.800048</ele>
<time>2018-06-28T12:32:35Z</time>
</trkpt>
<trkpt lat="44.810613410" lon="6.447960060">
  <ele>1969.500000</ele>
<time>2018-06-28T12:32:49Z</time>
</trkpt>
<trkpt lat="44.810533440" lon="6.447905070">
  <ele>1973.500000</ele>
<time>2018-06-28T12:33:05Z</time>
</trkpt>
<trkpt lat="44.810455160" lon="6.447850090">
  <ele>1977.300048</ele>
<time>2018-06-28T12:33:24Z</time>
</trkpt>
<trkpt lat="44.810373350" lon="6.447808350">
  <ele>1979.900024</ele>
<time>2018-06-28T12:33:38Z</time>
</trkpt>
<trkpt lat="44.810286680" lon="6.447781690">
  <ele>1982.800048</ele>
<time>2018-06-28T12:33:54Z</time>
</trkpt>
<trkpt lat="44.810216780" lon="6.447860150">
  <ele>1985.699951</ele>
<time>2018-06-28T12:34:13Z</time>
</trkpt>
<trkpt lat="44.810133460" lon="6.447853440">
  <ele>1985.900024</ele>
<time>2018-06-28T12:34:27Z</time>
</trkpt>
<trkpt lat="44.810051820" lon="6.447811700">
  <ele>1987.000000</ele>
<time>2018-06-28T12:34:38Z</time>
</trkpt>
<trkpt lat="44.809963470" lon="6.447796780">
  <ele>1990.900024</ele>
<time>2018-06-28T12:34:55Z</time>
</trkpt>
<trkpt lat="44.809878480" lon="6.447790070">
  <ele>1994.599975</ele>
<time>2018-06-28T12:35:10Z</time>
</trkpt>
<trkpt lat="44.809808410" lon="6.447720000">
  <ele>1994.699951</ele>
<time>2018-06-28T12:35:23Z</time>
</trkpt>
<trkpt lat="44.809800030" lon="6.447600140">
  <ele>1995.500000</ele>
<time>2018-06-28T12:35:36Z</time>
</trkpt>
<trkpt lat="44.809763480" lon="6.447491680">
  <ele>1997.800048</ele>
<time>2018-06-28T12:35:51Z</time>
</trkpt>
<trkpt lat="44.809688380" lon="6.447553370">
  <ele>2001.099975</ele>
<time>2018-06-28T12:36:10Z</time>
</trkpt>
<trkpt lat="44.809608420" lon="6.447585050">
  <ele>2000.500000</ele>
<time>2018-06-28T12:36:32Z</time>
</trkpt>
<trkpt lat="44.809533480" lon="6.447531740">
  <ele>1999.699951</ele>
<time>2018-06-28T12:36:40Z</time>
</trkpt>
<trkpt lat="44.809485040" lon="6.447425130">
  <ele>2001.199951</ele>
<time>2018-06-28T12:36:58Z</time>
</trkpt>
<trkpt lat="44.809411110" lon="6.447533080">
  <ele>2003.000000</ele>
<time>2018-06-28T12:37:32Z</time>
</trkpt>
<trkpt lat="44.809303820" lon="6.447510620">
  <ele>1999.000000</ele>
<time>2018-06-28T12:37:44Z</time>
</trkpt>
<trkpt lat="44.809217320" lon="6.447470390">
  <ele>1994.000000</ele>
<time>2018-06-28T12:37:56Z</time>
</trkpt>
<trkpt lat="44.809080190" lon="6.447474410">
  <ele>1988.000000</ele>
<time>2018-06-28T12:38:08Z</time>
</trkpt>
<trkpt lat="44.808957810" lon="6.447408700">
  <ele>1983.000000</ele>
<time>2018-06-28T12:38:20Z</time>
</trkpt>
<trkpt lat="44.808880370" lon="6.447304090">
  <ele>1979.000000</ele>
<time>2018-06-28T12:38:32Z</time>
</trkpt>
<trkpt lat="44.808789840" lon="6.447305100">
  <ele>1977.000000</ele>
<time>2018-06-28T12:38:52Z</time>
</trkpt>
<trkpt lat="44.808690260" lon="6.447363770">
  <ele>1976.000000</ele>
<time>2018-06-28T12:39:12Z</time>
</trkpt>
<trkpt lat="44.808621530" lon="6.447455300">
  <ele>1977.000000</ele>
<time>2018-06-28T12:39:28Z</time>
</trkpt>
<trkpt lat="44.808543410" lon="6.447544480">
  <ele>1977.000000</ele>
<time>2018-06-28T12:39:44Z</time>
</trkpt>
<trkpt lat="44.808440150" lon="6.447507940">
  <ele>1974.000000</ele>
<time>2018-06-28T12:40:00Z</time>
</trkpt>
<trkpt lat="44.808431430" lon="6.447353380">
  <ele>1974.000000</ele>
<time>2018-06-28T12:40:16Z</time>
</trkpt>
<trkpt lat="44.808427410" lon="6.447211220">
  <ele>1976.000000</ele>
<time>2018-06-28T12:40:36Z</time>
</trkpt>
<trkpt lat="44.808537040" lon="6.447230670">
  <ele>1982.000000</ele>
<time>2018-06-28T12:41:04Z</time>
</trkpt>
<trkpt lat="44.808596720" lon="6.447320020">
  <ele>1982.599975</ele>
<time>2018-06-28T12:41:15Z</time>
</trkpt>
<trkpt lat="44.808528490" lon="6.447250110">
  <ele>1985.800048</ele>
<time>2018-06-28T12:41:54Z</time>
</trkpt>
<trkpt lat="44.808516760" lon="6.447126730">
  <ele>1993.000000</ele>
<time>2018-06-28T12:42:24Z</time>
</trkpt>
<trkpt lat="44.808485070" lon="6.447018440">
  <ele>1999.800048</ele>
<time>2018-06-28T12:42:51Z</time>
</trkpt>
<trkpt lat="44.808473340" lon="6.446896730">
  <ele>2006.000000</ele>
<time>2018-06-28T12:43:06Z</time>
</trkpt>
<trkpt lat="44.808471660" lon="6.446771670">
  <ele>2017.599975</ele>
<time>2018-06-28T12:43:29Z</time>
</trkpt>
<trkpt lat="44.808530000" lon="6.446685000">
  <ele>2026.400024</ele>
<time>2018-06-28T12:43:44Z</time>
</trkpt>
<trkpt lat="44.808541740" lon="6.446563470">
  <ele>2038.000000</ele>
<time>2018-06-28T12:44:05Z</time>
</trkpt>
<trkpt lat="44.808528490" lon="6.446440080">
  <ele>2048.399902</ele>
<time>2018-06-28T12:44:27Z</time>
</trkpt>
<trkpt lat="44.808476690" lon="6.446345030">
  <ele>2059.199951</ele>
<time>2018-06-28T12:44:52Z</time>
</trkpt>
<trkpt lat="44.808456740" lon="6.446225000">
  <ele>2065.500000</ele>
<time>2018-06-28T12:45:10Z</time>
</trkpt>
<trkpt lat="44.808453390" lon="6.446105140">
  <ele>2072.000000</ele>
<time>2018-06-28T12:45:29Z</time>
</trkpt>
<trkpt lat="44.808388350" lon="6.446025010">
  <ele>2077.100097</ele>
<time>2018-06-28T12:45:47Z</time>
</trkpt>
<trkpt lat="44.808425060" lon="6.445913370">
  <ele>2080.699951</ele>
<time>2018-06-28T12:45:59Z</time>
</trkpt>
<trkpt lat="44.808425060" lon="6.445798370">
  <ele>2079.500000</ele>
<time>2018-06-28T12:46:09Z</time>
</trkpt>
<trkpt lat="44.808416680" lon="6.445675150">
  <ele>2078.699951</ele>
<time>2018-06-28T12:46:23Z</time>
</trkpt>
<trkpt lat="44.808433440" lon="6.445551770">
  <ele>2081.399902</ele>
<time>2018-06-28T12:46:51Z</time>
</trkpt>
<trkpt lat="44.808368400" lon="6.445418160">
  <ele>2083.000000</ele>
<time>2018-06-28T12:47:05Z</time>
</trkpt>
<trkpt lat="44.808333360" lon="6.445308360">
  <ele>2083.600097</ele>
<time>2018-06-28T12:47:19Z</time>
</trkpt>
<trkpt lat="44.808251720" lon="6.445256730">
  <ele>2083.100097</ele>
<time>2018-06-28T12:47:28Z</time>
</trkpt>
<trkpt lat="44.808260100" lon="6.445131670">
  <ele>2081.199951</ele>
<time>2018-06-28T12:47:43Z</time>
</trkpt>
<trkpt lat="44.808295140" lon="6.445016670">
  <ele>2080.800048</ele>
<time>2018-06-28T12:47:51Z</time>
</trkpt>
<trkpt lat="44.808315090" lon="6.444895130">
  <ele>2078.100097</ele>
<time>2018-06-28T12:48:06Z</time>
</trkpt>
<trkpt lat="44.808321800" lon="6.444778460">
  <ele>2076.000000</ele>
<time>2018-06-28T12:48:17Z</time>
</trkpt>
<trkpt lat="44.808276700" lon="6.444678380">
  <ele>2074.699951</ele>
<time>2018-06-28T12:48:28Z</time>
</trkpt>
<trkpt lat="44.808241660" lon="6.444563380">
  <ele>2073.100097</ele>
<time>2018-06-28T12:48:42Z</time>
</trkpt>
<trkpt lat="44.808223390" lon="6.444443350">
  <ele>2072.100097</ele>
<time>2018-06-28T12:48:57Z</time>
</trkpt>
<trkpt lat="44.808176790" lon="6.444340080">
  <ele>2071.000000</ele>
<time>2018-06-28T12:49:10Z</time>
</trkpt>
<trkpt lat="44.808150130" lon="6.444223410">
  <ele>2072.000000</ele>
<time>2018-06-28T12:49:32Z</time>
</trkpt>
<trkpt lat="44.808070000" lon="6.444171770">
  <ele>2073.500000</ele>
<time>2018-06-28T12:49:52Z</time>
</trkpt>
<trkpt lat="44.808038490" lon="6.444061800">
  <ele>2076.399902</ele>
<time>2018-06-28T12:50:08Z</time>
</trkpt>
<trkpt lat="44.808048380" lon="6.443936750">
  <ele>2085.000000</ele>
<time>2018-06-28T12:50:31Z</time>
</trkpt>
<trkpt lat="44.807998420" lon="6.443835160">
  <ele>2111.500000</ele>
<time>2018-06-28T12:51:14Z</time>
</trkpt>
<trkpt lat="44.807961710" lon="6.443723340">
  <ele>2119.600097</ele>
<time>2018-06-28T12:51:31Z</time>
</trkpt>
<trkpt lat="44.807888450" lon="6.443661820">
  <ele>2127.399902</ele>
<time>2018-06-28T12:51:52Z</time>
</trkpt>
<trkpt lat="44.807840000" lon="6.443596780">
  <ele>2134.500000</ele>
<time>2018-06-28T12:52:22Z</time>
</trkpt>
<trkpt lat="44.807780160" lon="6.443523350">
  <ele>2139.000000</ele>
<time>2018-06-28T12:52:51Z</time>
</trkpt>
<trkpt lat="44.807700030" lon="6.443493340">
  <ele>2140.699951</ele>
<time>2018-06-28T12:53:06Z</time>
</trkpt>
<trkpt lat="44.807640010" lon="6.443411700">
  <ele>2142.500000</ele>
<time>2018-06-28T12:53:21Z</time>
</trkpt>
<trkpt lat="44.807553340" lon="6.443391750">
  <ele>2146.100097</ele>
<time>2018-06-28T12:53:39Z</time>
</trkpt>
<trkpt lat="44.807486790" lon="6.443310110">
  <ele>2151.899902</ele>
<time>2018-06-28T12:54:03Z</time>
</trkpt>
<trkpt lat="44.807408340" lon="6.443261670">
  <ele>2155.600097</ele>
<time>2018-06-28T12:54:22Z</time>
</trkpt>
<trkpt lat="44.807320160" lon="6.443246750">
  <ele>2159.300048</ele>
<time>2018-06-28T12:54:38Z</time>
</trkpt>
<trkpt lat="44.807233490" lon="6.443221770">
  <ele>2164.300048</ele>
<time>2018-06-28T12:54:56Z</time>
</trkpt>
<trkpt lat="44.807155030" lon="6.443166780">
  <ele>2169.000000</ele>
<time>2018-06-28T12:55:16Z</time>
</trkpt>
<trkpt lat="44.807070040" lon="6.443156730">
  <ele>2170.500000</ele>
<time>2018-06-28T12:55:27Z</time>
</trkpt>
<trkpt lat="44.806995110" lon="6.443086820">
  <ele>2172.100097</ele>
<time>2018-06-28T12:55:45Z</time>
</trkpt>
<trkpt lat="44.806910110" lon="6.443048430">
  <ele>2172.699951</ele>
<time>2018-06-28T12:55:57Z</time>
</trkpt>
<trkpt lat="44.806830150" lon="6.443000150">
  <ele>2174.100097</ele>
<time>2018-06-28T12:56:15Z</time>
</trkpt>
<trkpt lat="44.806755050" lon="6.443040050">
  <ele>2174.800048</ele>
<time>2018-06-28T12:56:30Z</time>
</trkpt>
<trkpt lat="44.806671730" lon="6.443050110">
  <ele>2174.800048</ele>
<time>2018-06-28T12:56:43Z</time>
</trkpt>
<trkpt lat="44.806585060" lon="6.443065030">
  <ele>2175.100097</ele>
<time>2018-06-28T12:56:58Z</time>
</trkpt>
<trkpt lat="44.806510130" lon="6.443120010">
  <ele>2175.500000</ele>
<time>2018-06-28T12:57:18Z</time>
</trkpt>
<trkpt lat="44.806425140" lon="6.443146670">
  <ele>2177.800048</ele>
<time>2018-06-28T12:57:38Z</time>
</trkpt>
<trkpt lat="44.806371830" lon="6.443048430">
  <ele>2179.500000</ele>
<time>2018-06-28T12:57:50Z</time>
</trkpt>
<trkpt lat="44.806293370" lon="6.443006690">
  <ele>2184.199951</ele>
<time>2018-06-28T12:58:12Z</time>
</trkpt>
<trkpt lat="44.806208380" lon="6.443013390">
  <ele>2187.399902</ele>
<time>2018-06-28T12:58:27Z</time>
</trkpt>
<trkpt lat="44.806123390" lon="6.442981710">
  <ele>2188.800048</ele>
<time>2018-06-28T12:58:39Z</time>
</trkpt>
<trkpt lat="44.806043430" lon="6.442941810">
  <ele>2190.300048</ele>
<time>2018-06-28T12:58:48Z</time>
</trkpt>
<trkpt lat="44.806026660" lon="6.443056810">
  <ele>2193.500000</ele>
<time>2018-06-28T12:59:03Z</time>
</trkpt>
<trkpt lat="44.806051810" lon="6.443166780">
  <ele>2194.600097</ele>
<time>2018-06-28T12:59:13Z</time>
</trkpt>
<trkpt lat="44.806110150" lon="6.443258480">
  <ele>2195.100097</ele>
<time>2018-06-28T12:59:21Z</time>
</trkpt>
<trkpt lat="44.806025150" lon="6.443295030">
  <ele>2196.000000</ele>
<time>2018-06-28T12:59:45Z</time>
</trkpt>
<trkpt lat="44.805938480" lon="6.443276750">
  <ele>2197.000000</ele>
<time>2018-06-28T12:59:58Z</time>
</trkpt>
<trkpt lat="44.805853490" lon="6.443253450">
  <ele>2199.699951</ele>
<time>2018-06-28T13:00:23Z</time>
</trkpt>
<trkpt lat="44.805810070" lon="6.443148340">
  <ele>2201.500000</ele>
<time>2018-06-28T13:00:32Z</time>
</trkpt>
<trkpt lat="44.805738490" lon="6.443073410">
  <ele>2204.800048</ele>
<time>2018-06-28T13:00:42Z</time>
</trkpt>
<trkpt lat="44.805676800" lon="6.442990090">
  <ele>2207.000000</ele>
<time>2018-06-28T13:00:54Z</time>
</trkpt>
<trkpt lat="44.805621820" lon="6.442898400">
  <ele>2208.100097</ele>
<time>2018-06-28T13:01:06Z</time>
</trkpt>
<trkpt lat="44.805545040" lon="6.442843410">
  <ele>2211.100097</ele>
<time>2018-06-28T13:01:20Z</time>
</trkpt>
<trkpt lat="44.805493410" lon="6.442740140">
  <ele>2212.699951</ele>
<time>2018-06-28T13:01:34Z</time>
</trkpt>
<trkpt lat="44.805456690" lon="6.442625150">
  <ele>2213.800048</ele>
<time>2018-06-28T13:01:47Z</time>
</trkpt>
<trkpt lat="44.805408410" lon="6.442530090">
  <ele>2214.699951</ele>
<time>2018-06-28T13:01:58Z</time>
</trkpt>
<trkpt lat="44.805378410" lon="6.442421800">
  <ele>2215.100097</ele>
<time>2018-06-28T13:02:09Z</time>
</trkpt>
<trkpt lat="44.805326770" lon="6.442320040">
  <ele>2217.000000</ele>
<time>2018-06-28T13:02:22Z</time>
</trkpt>
<trkpt lat="44.805305150" lon="6.442203370">
  <ele>2218.899902</ele>
<time>2018-06-28T13:02:36Z</time>
</trkpt>
<trkpt lat="44.805276820" lon="6.442090040">
  <ele>2224.500000</ele>
<time>2018-06-28T13:02:57Z</time>
</trkpt>
<trkpt lat="44.805245130" lon="6.441978400">
  <ele>2228.300048</ele>
<time>2018-06-28T13:03:15Z</time>
</trkpt>
<trkpt lat="44.805211770" lon="6.441868430">
  <ele>2230.600097</ele>
<time>2018-06-28T13:03:34Z</time>
</trkpt>
<trkpt lat="44.805190150" lon="6.441766670">
  <ele>2232.199951</ele>
<time>2018-06-28T13:03:54Z</time>
</trkpt>
<trkpt lat="44.805123430" lon="6.441685030">
  <ele>2233.199951</ele>
<time>2018-06-28T13:04:10Z</time>
</trkpt>
<trkpt lat="44.805056710" lon="6.441613450">
  <ele>2235.199951</ele>
<time>2018-06-28T13:04:36Z</time>
</trkpt>
<trkpt lat="44.805045140" lon="6.441488390">
  <ele>2237.600097</ele>
<time>2018-06-28T13:04:48Z</time>
</trkpt>
<trkpt lat="44.805026700" lon="6.441373390">
  <ele>2238.199951</ele>
<time>2018-06-28T13:05:31Z</time>
</trkpt>
<trkpt lat="44.805031730" lon="6.441495100">
  <ele>2235.600097</ele>
<time>2018-06-28T13:05:47Z</time>
</trkpt>
<trkpt lat="44.805035080" lon="6.441616800">
  <ele>2233.199951</ele>
<time>2018-06-28T13:05:56Z</time>
</trkpt>
<trkpt lat="44.805033410" lon="6.441731800">
  <ele>2231.899902</ele>
<time>2018-06-28T13:06:03Z</time>
</trkpt>
<trkpt lat="44.805013460" lon="6.441851660">
  <ele>2231.000000</ele>
<time>2018-06-28T13:06:12Z</time>
</trkpt>
<trkpt lat="44.805013460" lon="6.441975040">
  <ele>2230.600097</ele>
<time>2018-06-28T13:06:24Z</time>
</trkpt>
<trkpt lat="44.804996690" lon="6.442093400">
  <ele>2230.199951</ele>
<time>2018-06-28T13:06:38Z</time>
</trkpt>
<trkpt lat="44.804943390" lon="6.442195150">
  <ele>2231.399902</ele>
<time>2018-06-28T13:06:50Z</time>
</trkpt>
<trkpt lat="44.804880020" lon="6.442276790">
  <ele>2228.899902</ele>
<time>2018-06-28T13:07:01Z</time>
</trkpt>
<trkpt lat="44.804826710" lon="6.442373350">
  <ele>2227.800048</ele>
<time>2018-06-28T13:07:19Z</time>
</trkpt>
<trkpt lat="44.804790000" lon="6.442478460">
  <ele>2227.800048</ele>
<time>2018-06-28T13:07:33Z</time>
</trkpt>
<trkpt lat="44.804736690" lon="6.442573340">
  <ele>2228.500000</ele>
<time>2018-06-28T13:07:45Z</time>
</trkpt>
<trkpt lat="44.804680030" lon="6.442668400">
  <ele>2229.199951</ele>
<time>2018-06-28T13:08:01Z</time>
</trkpt>
<trkpt lat="44.804611800" lon="6.442741820">
  <ele>2229.600097</ele>
<time>2018-06-28T13:08:14Z</time>
</trkpt>
<trkpt lat="44.804540050" lon="6.442666720">
  <ele>2229.699951</ele>
<time>2018-06-28T13:08:31Z</time>
</trkpt>
<trkpt lat="44.804453380" lon="6.442658340">
  <ele>2232.300048</ele>
<time>2018-06-28T13:08:48Z</time>
</trkpt>
<trkpt lat="44.804378440" lon="6.442715000">
  <ele>2236.600097</ele>
<time>2018-06-28T13:09:05Z</time>
</trkpt>
<trkpt lat="44.804298480" lon="6.442766800">
  <ele>2242.000000</ele>
<time>2018-06-28T13:09:28Z</time>
</trkpt>
<trkpt lat="44.804228410" lon="6.442841730">
  <ele>2244.600097</ele>
<time>2018-06-28T13:09:49Z</time>
</trkpt>
<trkpt lat="44.804151800" lon="6.442900070">
  <ele>2247.399902</ele>
<time>2018-06-28T13:10:11Z</time>
</trkpt>
<trkpt lat="44.804086750" lon="6.442980030">
  <ele>2248.699951</ele>
<time>2018-06-28T13:10:26Z</time>
</trkpt>
<trkpt lat="44.804018360" lon="6.443060000">
  <ele>2250.699951</ele>
<time>2018-06-28T13:10:46Z</time>
</trkpt>
<trkpt lat="44.803991700" lon="6.442943490">
  <ele>2255.000000</ele>
<time>2018-06-28T13:11:20Z</time>
</trkpt>
<trkpt lat="44.803903360" lon="6.442935110">
  <ele>2263.399902</ele>
<time>2018-06-28T13:11:50Z</time>
</trkpt>
<trkpt lat="44.803835130" lon="6.442855140">
  <ele>2270.600097</ele>
<time>2018-06-28T13:12:31Z</time>
</trkpt>
<trkpt lat="44.803825070" lon="6.442733440">
  <ele>2273.899902</ele>
<time>2018-06-28T13:12:45Z</time>
</trkpt>
<trkpt lat="44.803831780" lon="6.442608380">
  <ele>2279.600097</ele>
<time>2018-06-28T13:13:07Z</time>
</trkpt>
<trkpt lat="44.803788360" lon="6.442505120">
  <ele>2284.100097</ele>
<time>2018-06-28T13:13:37Z</time>
</trkpt>
<trkpt lat="44.803741760" lon="6.442400010">
  <ele>2285.199951</ele>
<time>2018-06-28T13:13:54Z</time>
</trkpt>
<trkpt lat="44.803751810" lon="6.442275120">
  <ele>2288.500000</ele>
<time>2018-06-28T13:14:18Z</time>
</trkpt>
<trkpt lat="44.803723480" lon="6.442160120">
  <ele>2291.600097</ele>
<time>2018-06-28T13:14:41Z</time>
</trkpt>
<trkpt lat="44.803743430" lon="6.442066740">
  <ele>2295.600097</ele>
<time>2018-06-28T13:15:13Z</time>
</trkpt>
<trkpt lat="44.803693480" lon="6.441961800">
  <ele>2298.000000</ele>
<time>2018-06-28T13:15:23Z</time>
</trkpt>
<trkpt lat="44.803681740" lon="6.441855020">
  <ele>2301.300048</ele>
<time>2018-06-28T13:15:50Z</time>
</trkpt>
<trkpt lat="44.803658440" lon="6.441736660">
  <ele>2304.399902</ele>
<time>2018-06-28T13:16:05Z</time>
</trkpt>
<trkpt lat="44.803621730" lon="6.441623340">
  <ele>2308.600097</ele>
<time>2018-06-28T13:16:33Z</time>
</trkpt>
<trkpt lat="44.803593400" lon="6.441505160">
  <ele>2309.600097</ele>
<time>2018-06-28T13:16:52Z</time>
</trkpt>
<trkpt lat="44.803548470" lon="6.441398370">
  <ele>2312.600097</ele>
<time>2018-06-28T13:17:12Z</time>
</trkpt>
<trkpt lat="44.803523490" lon="6.441278340">
  <ele>2315.199951</ele>
<time>2018-06-28T13:17:26Z</time>
</trkpt>
<trkpt lat="44.803490130" lon="6.441165020">
  <ele>2319.199951</ele>
<time>2018-06-28T13:17:42Z</time>
</trkpt>
<trkpt lat="44.803481750" lon="6.441045160">
  <ele>2322.399902</ele>
<time>2018-06-28T13:18:08Z</time>
</trkpt>
<trkpt lat="44.803435150" lon="6.440938370">
  <ele>2323.500000</ele>
<time>2018-06-28T13:18:22Z</time>
</trkpt>
<trkpt lat="44.803396760" lon="6.440831750">
  <ele>2326.000000</ele>
<time>2018-06-28T13:18:35Z</time>
</trkpt>
<trkpt lat="44.803375130" lon="6.440713400">
  <ele>2328.399902</ele>
<time>2018-06-28T13:18:49Z</time>
</trkpt>
<trkpt lat="44.803341770" lon="6.440600080">
  <ele>2330.500000</ele>
<time>2018-06-28T13:19:03Z</time>
</trkpt>
<trkpt lat="44.803316790" lon="6.440485080">
  <ele>2332.500000</ele>
<time>2018-06-28T13:19:22Z</time>
</trkpt>
<trkpt lat="44.803231800" lon="6.440448360">
  <ele>2335.699951</ele>
<time>2018-06-28T13:19:42Z</time>
</trkpt>
<trkpt lat="44.803193410" lon="6.440340070">
  <ele>2342.399902</ele>
<time>2018-06-28T13:20:19Z</time>
</trkpt>
<trkpt lat="44.803131720" lon="6.440248370">
  <ele>2348.399902</ele>
<time>2018-06-28T13:20:41Z</time>
</trkpt>
<trkpt lat="44.803045050" lon="6.440216690">
  <ele>2355.300048</ele>
<time>2018-06-28T13:21:05Z</time>
</trkpt>
<trkpt lat="44.802958380" lon="6.440231780">
  <ele>2359.000000</ele>
<time>2018-06-28T13:21:27Z</time>
</trkpt>
<trkpt lat="44.802880100" lon="6.440285090">
  <ele>2360.699951</ele>
<time>2018-06-28T13:21:44Z</time>
</trkpt>
<trkpt lat="44.802826790" lon="6.440385000">
  <ele>2362.399902</ele>
<time>2018-06-28T13:22:05Z</time>
</trkpt>
<trkpt lat="44.802798460" lon="6.440501670">
  <ele>2363.100097</ele>
<time>2018-06-28T13:22:21Z</time>
</trkpt>
<trkpt lat="44.802758390" lon="6.440613490">
  <ele>2365.899902</ele>
<time>2018-06-28T13:22:43Z</time>
</trkpt>
<trkpt lat="44.802733410" lon="6.440731670">
  <ele>2367.899902</ele>
<time>2018-06-28T13:23:18Z</time>
</trkpt>
<trkpt lat="44.802715140" lon="6.440848350">
  <ele>2368.500000</ele>
<time>2018-06-28T13:23:31Z</time>
</trkpt>
<trkpt lat="44.802660150" lon="6.440948430">
  <ele>2372.100097</ele>
<time>2018-06-28T13:24:06Z</time>
</trkpt>
<trkpt lat="44.802610030" lon="6.440851700">
  <ele>2376.600097</ele>
<time>2018-06-28T13:24:36Z</time>
</trkpt>
<trkpt lat="44.802583380" lon="6.440736700">
  <ele>2380.500000</ele>
<time>2018-06-28T13:24:55Z</time>
</trkpt>
<trkpt lat="44.802500060" lon="6.440781800">
  <ele>2385.899902</ele>
<time>2018-06-28T13:25:25Z</time>
</trkpt>
<trkpt lat="44.802453460" lon="6.440890090">
  <ele>2388.199951</ele>
<time>2018-06-28T13:25:44Z</time>
</trkpt>
<trkpt lat="44.802401820" lon="6.440993360">
  <ele>2391.100097</ele>
<time>2018-06-28T13:26:03Z</time>
</trkpt>
<trkpt lat="44.802376680" lon="6.441110030">
  <ele>2393.300048</ele>
<time>2018-06-28T13:26:20Z</time>
</trkpt>
<trkpt lat="44.802301740" lon="6.441081700">
  <ele>2397.500000</ele>
<time>2018-06-28T13:26:56Z</time>
</trkpt>
<trkpt lat="44.802273410" lon="6.440966700">
  <ele>2401.000000</ele>
<time>2018-06-28T13:27:10Z</time>
</trkpt>
<trkpt lat="44.802238380" lon="6.440851700">
  <ele>2405.899902</ele>
<time>2018-06-28T13:27:32Z</time>
</trkpt>
<trkpt lat="44.802223460" lon="6.440731670">
  <ele>2408.100097</ele>
<time>2018-06-28T13:27:51Z</time>
</trkpt>
<trkpt lat="44.802210050" lon="6.440611810">
  <ele>2411.600097</ele>
<time>2018-06-28T13:28:12Z</time>
</trkpt>
<trkpt lat="44.802181720" lon="6.440495140">
  <ele>2414.600097</ele>
<time>2018-06-28T13:28:35Z</time>
</trkpt>
<trkpt lat="44.802128410" lon="6.440393380">
  <ele>2417.399902</ele>
<time>2018-06-28T13:29:01Z</time>
</trkpt>
<trkpt lat="44.802070070" lon="6.440486750">
  <ele>2419.899902</ele>
<time>2018-06-28T13:29:18Z</time>
</trkpt>
<trkpt lat="44.802005030" lon="6.440570070">
  <ele>2422.600097</ele>
<time>2018-06-28T13:29:36Z</time>
</trkpt>
<trkpt lat="44.801961770" lon="6.440680040">
  <ele>2423.800048</ele>
<time>2018-06-28T13:29:51Z</time>
</trkpt>
<trkpt lat="44.801926740" lon="6.440790010">
  <ele>2424.699951</ele>
<time>2018-06-28T13:30:03Z</time>
</trkpt>
<trkpt lat="44.801876780" lon="6.440890090">
  <ele>2425.399902</ele>
<time>2018-06-28T13:30:25Z</time>
</trkpt>
<trkpt lat="44.801848450" lon="6.441010120">
  <ele>2426.600097</ele>
<time>2018-06-28T13:30:37Z</time>
</trkpt>
<trkpt lat="44.801810060" lon="6.441120090">
  <ele>2427.500000</ele>
<time>2018-06-28T13:30:48Z</time>
</trkpt>
<trkpt lat="44.801781730" lon="6.441236770">
  <ele>2429.300048</ele>
<time>2018-06-28T13:31:02Z</time>
</trkpt>
<trkpt lat="44.801695060" lon="6.441221680">
  <ele>2433.600097</ele>
<time>2018-06-28T13:31:28Z</time>
</trkpt>
<trkpt lat="44.801611750" lon="6.441180100">
  <ele>2436.500000</ele>
<time>2018-06-28T13:31:49Z</time>
</trkpt>
<trkpt lat="44.801561790" lon="6.441080030">
  <ele>2441.899902</ele>
<time>2018-06-28T13:32:10Z</time>
</trkpt>
<trkpt lat="44.801480150" lon="6.441123440">
  <ele>2446.199951</ele>
<time>2018-06-28T13:32:33Z</time>
</trkpt>
<trkpt lat="44.801410080" lon="6.441195020">
  <ele>2449.199951</ele>
<time>2018-06-28T13:32:49Z</time>
</trkpt>
<trkpt lat="44.801328440" lon="6.441220000">
  <ele>2452.199951</ele>
<time>2018-06-28T13:33:07Z</time>
</trkpt>
<trkpt lat="44.801255010" lon="6.441280020">
  <ele>2455.100097</ele>
<time>2018-06-28T13:33:23Z</time>
</trkpt>
<trkpt lat="44.801180080" lon="6.441346740">
  <ele>2457.699951</ele>
<time>2018-06-28T13:33:40Z</time>
</trkpt>
<trkpt lat="44.801115030" lon="6.441425020">
  <ele>2460.699951</ele>
<time>2018-06-28T13:33:58Z</time>
</trkpt>
<trkpt lat="44.801046810" lon="6.441501800">
  <ele>2464.399902</ele>
<time>2018-06-28T13:34:19Z</time>
</trkpt>
<trkpt lat="44.800990140" lon="6.441600040">
  <ele>2467.399902</ele>
<time>2018-06-28T13:34:38Z</time>
</trkpt>
<trkpt lat="44.800936670" lon="6.441691740">
  <ele>2470.500000</ele>
<time>2018-06-28T13:34:57Z</time>
</trkpt>
<trkpt lat="44.800865090" lon="6.441618480">
  <ele>2474.300048</ele>
<time>2018-06-28T13:35:34Z</time>
</trkpt>
<trkpt lat="44.800780090" lon="6.441580090">
  <ele>2474.699951</ele>
<time>2018-06-28T13:35:47Z</time>
</trkpt>
<trkpt lat="44.800698450" lon="6.441628370">
  <ele>2476.300048</ele>
<time>2018-06-28T13:36:03Z</time>
</trkpt>
<trkpt lat="44.800645150" lon="6.441665080">
  <ele>2478.100097</ele>
<time>2018-06-28T13:36:31Z</time>
</trkpt>
<trkpt lat="44.800590160" lon="6.441765160">
  <ele>2479.800048</ele>
<time>2018-06-28T13:36:55Z</time>
</trkpt>
<trkpt lat="44.800501810" lon="6.441761810">
  <ele>2485.899902</ele>
<time>2018-06-28T13:38:01Z</time>
</trkpt>
<trkpt lat="44.800411120" lon="6.442053500">
  <ele>2492.000000</ele>
<time>2018-06-28T13:39:54Z</time>
</trkpt>
<trkpt lat="44.800398380" lon="6.442176710">
  <ele>2494.500000</ele>
<time>2018-06-28T13:40:08Z</time>
</trkpt>
<trkpt lat="44.800365020" lon="6.442286680">
  <ele>2497.500000</ele>
<time>2018-06-28T13:40:25Z</time>
</trkpt>
<trkpt lat="44.800325120" lon="6.442400010">
  <ele>2498.399902</ele>
<time>2018-06-28T13:40:40Z</time>
</trkpt>
<trkpt lat="44.800295120" lon="6.442518360">
  <ele>2501.100097</ele>
<time>2018-06-28T13:41:03Z</time>
</trkpt>
<trkpt lat="44.800266790" lon="6.442638390">
  <ele>2503.199951</ele>
<time>2018-06-28T13:41:17Z</time>
</trkpt>
<trkpt lat="44.800238460" lon="6.442751710">
  <ele>2506.000000</ele>
<time>2018-06-28T13:41:34Z</time>
</trkpt>
<trkpt lat="44.800215150" lon="6.442631680">
  <ele>2508.899902</ele>
<time>2018-06-28T13:41:59Z</time>
</trkpt>
<trkpt lat="44.800186820" lon="6.442513330">
  <ele>2511.699951</ele>
<time>2018-06-28T13:42:18Z</time>
</trkpt>
<trkpt lat="44.800150110" lon="6.442401680">
  <ele>2513.699951</ele>
<time>2018-06-28T13:42:36Z</time>
</trkpt>
<trkpt lat="44.800116750" lon="6.442286680">
  <ele>2514.800048</ele>
<time>2018-06-28T13:42:50Z</time>
</trkpt>
<trkpt lat="44.800085070" lon="6.442171680">
  <ele>2518.199951</ele>
<time>2018-06-28T13:43:09Z</time>
</trkpt>
<trkpt lat="44.800011810" lon="6.442233370">
  <ele>2521.600097</ele>
<time>2018-06-28T13:43:51Z</time>
</trkpt>
<trkpt lat="44.799955150" lon="6.442330100">
  <ele>2523.500000</ele>
<time>2018-06-28T13:44:12Z</time>
</trkpt>
<trkpt lat="44.799895130" lon="6.442236730">
  <ele>2526.899902</ele>
<time>2018-06-28T13:44:48Z</time>
</trkpt>
<trkpt lat="44.799830090" lon="6.442321720">
  <ele>2530.500000</ele>
<time>2018-06-28T13:45:25Z</time>
</trkpt>
<trkpt lat="44.799815000" lon="6.442445100">
  <ele>2529.100097</ele>
<time>2018-06-28T13:45:50Z</time>
</trkpt>
<trkpt lat="44.799768400" lon="6.442546690">
  <ele>2531.699951</ele>
<time>2018-06-28T13:46:11Z</time>
</trkpt>
<trkpt lat="44.799716770" lon="6.442643420">
  <ele>2534.699951</ele>
<time>2018-06-28T13:46:29Z</time>
</trkpt>
<trkpt lat="44.799643340" lon="6.442715000">
  <ele>2538.500000</ele>
<time>2018-06-28T13:46:50Z</time>
</trkpt>
<trkpt lat="44.799553490" lon="6.442720030">
  <ele>2542.100097</ele>
<time>2018-06-28T13:47:18Z</time>
</trkpt>
<trkpt lat="44.799533370" lon="6.442596810">
  <ele>2545.399902</ele>
<time>2018-06-28T13:49:15Z</time>
</trkpt>
<trkpt lat="44.799445020" lon="6.442605030">
  <ele>2549.899902</ele>
<time>2018-06-28T13:49:40Z</time>
</trkpt>
<trkpt lat="44.799391720" lon="6.442691700">
  <ele>2550.800048</ele>
<time>2018-06-28T13:50:12Z</time>
</trkpt>
<trkpt lat="44.799335050" lon="6.442788420">
  <ele>2553.300048</ele>
<time>2018-06-28T13:50:30Z</time>
</trkpt>
<trkpt lat="44.799276720" lon="6.442880120">
  <ele>2556.000000</ele>
<time>2018-06-28T13:50:47Z</time>
</trkpt>
<trkpt lat="44.799236820" lon="6.442988420">
  <ele>2556.000000</ele>
<time>2018-06-28T13:51:15Z</time>
</trkpt>
<trkpt lat="44.799180160" lon="6.443086820">
  <ele>2561.000000</ele>
<time>2018-06-28T13:51:37Z</time>
</trkpt>
<trkpt lat="44.799126680" lon="6.443188410">
  <ele>2566.199951</ele>
<time>2018-06-28T13:52:06Z</time>
</trkpt>
<trkpt lat="44.799078400" lon="6.443286810">
  <ele>2570.399902</ele>
<time>2018-06-28T13:52:25Z</time>
</trkpt>
<trkpt lat="44.799016710" lon="6.443378340">
  <ele>2575.100097</ele>
<time>2018-06-28T13:52:59Z</time>
</trkpt>
<trkpt lat="44.798993410" lon="6.443496700">
  <ele>2579.500000</ele>
<time>2018-06-28T13:53:13Z</time>
</trkpt>
<trkpt lat="44.798950160" lon="6.443600130">
  <ele>2584.300048</ele>
<time>2018-06-28T13:53:43Z</time>
</trkpt>
<trkpt lat="44.798886790" lon="6.443515140">
  <ele>2589.600097</ele>
<time>2018-06-28T13:54:18Z</time>
</trkpt>
<trkpt lat="44.798825100" lon="6.443425110">
  <ele>2593.000000</ele>
<time>2018-06-28T13:54:38Z</time>
</trkpt>
<trkpt lat="44.798741780" lon="6.443398460">
  <ele>2597.899902</ele>
<time>2018-06-28T13:55:17Z</time>
</trkpt>
<trkpt lat="44.798698360" lon="6.443315140">
  <ele>2600.300048</ele>
<time>2018-06-28T13:56:30Z</time>
</trkpt>
<trkpt lat="44.798645060" lon="6.443326710">
  <ele>2602.300048</ele>
<time>2018-06-28T13:56:48Z</time>
</trkpt>
<trkpt lat="44.798571800" lon="6.443281780">
  <ele>2608.199951</ele>
<time>2018-06-28T13:57:08Z</time>
</trkpt>
<trkpt lat="44.798510110" lon="6.443195110">
  <ele>2613.300048</ele>
<time>2018-06-28T13:57:42Z</time>
</trkpt>
<trkpt lat="44.798490160" lon="6.443075090">
  <ele>2617.399902</ele>
<time>2018-06-28T13:57:56Z</time>
</trkpt>
<trkpt lat="44.798448420" lon="6.442966790">
  <ele>2620.500000</ele>
<time>2018-06-28T13:58:14Z</time>
</trkpt>
<trkpt lat="44.798433330" lon="6.442848440">
  <ele>2621.600097</ele>
<time>2018-06-28T13:58:24Z</time>
</trkpt>
<trkpt lat="44.798418410" lon="6.442726730">
  <ele>2622.500000</ele>
<time>2018-06-28T13:58:35Z</time>
</trkpt>
<trkpt lat="44.798370130" lon="6.442625150">
  <ele>2623.699951</ele>
<time>2018-06-28T13:58:47Z</time>
</trkpt>
<trkpt lat="44.798283460" lon="6.442620120">
  <ele>2623.300048</ele>
<time>2018-06-28T13:59:33Z</time>
</trkpt>
<trkpt lat="44.798345150" lon="6.442703430">
  <ele>2620.600097</ele>
<time>2018-06-28T14:00:08Z</time>
</trkpt>
<trkpt lat="44.798348340" lon="6.442821780">
  <ele>2621.100097</ele>
<time>2018-06-28T14:02:31Z</time>
</trkpt>
<trkpt lat="44.798335090" lon="6.442943490">
  <ele>2621.199951</ele>
<time>2018-06-28T14:02:48Z</time>
</trkpt>
<trkpt lat="44.798310110" lon="6.443061670">
  <ele>2621.300048</ele>
<time>2018-06-28T14:03:01Z</time>
</trkpt>
<trkpt lat="44.798316820" lon="6.443178350">
  <ele>2619.399902</ele>
<time>2018-06-28T14:03:11Z</time>
</trkpt>
<trkpt lat="44.798301730" lon="6.443300060">
  <ele>2618.800048</ele>
<time>2018-06-28T14:03:28Z</time>
</trkpt>
<trkpt lat="44.798285140" lon="6.443420080">
  <ele>2620.500000</ele>
<time>2018-06-28T14:03:41Z</time>
</trkpt>
<trkpt lat="44.798255130" lon="6.443538440">
  <ele>2623.300048</ele>
<time>2018-06-28T14:03:58Z</time>
</trkpt>
<trkpt lat="44.798195110" lon="6.443628460">
  <ele>2630.300048</ele>
<time>2018-06-28T14:04:27Z</time>
</trkpt>
<trkpt lat="44.798128390" lon="6.443711780">
  <ele>2636.600097</ele>
<time>2018-06-28T14:05:21Z</time>
</trkpt>
<trkpt lat="44.798050110" lon="6.443766760">
  <ele>2637.199951</ele>
<time>2018-06-28T14:05:51Z</time>
</trkpt>
<trkpt lat="44.797993450" lon="6.443835160">
  <ele>2640.399902</ele>
<time>2018-06-28T14:06:21Z</time>
</trkpt>
<trkpt lat="44.797975010" lon="6.443956690">
  <ele>2643.699951</ele>
<time>2018-06-28T14:06:38Z</time>
</trkpt>
<trkpt lat="44.797960090" lon="6.444080080">
  <ele>2646.600097</ele>
<time>2018-06-28T14:06:56Z</time>
</trkpt>
<trkpt lat="44.797981710" lon="6.444195080">
  <ele>2649.199951</ele>
<time>2018-06-28T14:07:36Z</time>
</trkpt>
<trkpt lat="44.797970140" lon="6.444315100">
  <ele>2649.600097</ele>
<time>2018-06-28T14:07:44Z</time>
</trkpt>
<trkpt lat="44.797965120" lon="6.444431780">
  <ele>2650.000000</ele>
<time>2018-06-28T14:07:53Z</time>
</trkpt>
<trkpt lat="44.797961760" lon="6.444551810">
  <ele>2648.199951</ele>
<time>2018-06-28T14:08:03Z</time>
</trkpt>
<trkpt lat="44.797963440" lon="6.444665130">
  <ele>2647.000000</ele>
<time>2018-06-28T14:08:38Z</time>
</trkpt>
<trkpt lat="44.797973330" lon="6.444786670">
  <ele>2647.500000</ele>
<time>2018-06-28T14:08:46Z</time>
</trkpt>
<trkpt lat="44.798000150" lon="6.444903350">
  <ele>2650.399902</ele>
<time>2018-06-28T14:09:00Z</time>
</trkpt>
<trkpt lat="44.798020100" lon="6.445023380">
  <ele>2653.399902</ele>
<time>2018-06-28T14:09:15Z</time>
</trkpt>
<trkpt lat="44.798053460" lon="6.445138370">
  <ele>2655.899902</ele>
<time>2018-06-28T14:09:39Z</time>
</trkpt>
<trkpt lat="44.798126720" lon="6.445198390">
  <ele>2655.699951</ele>
<time>2018-06-28T14:09:46Z</time>
</trkpt>
<trkpt lat="44.798178350" lon="6.445298470">
  <ele>2655.199951</ele>
<time>2018-06-28T14:10:16Z</time>
</trkpt>
<trkpt lat="44.798225120" lon="6.445396710">
  <ele>2653.000000</ele>
<time>2018-06-28T14:10:25Z</time>
</trkpt>
<trkpt lat="44.798231830" lon="6.445510030">
  <ele>2650.800048</ele>
<time>2018-06-28T14:10:35Z</time>
</trkpt>
<trkpt lat="44.798243390" lon="6.445635090">
  <ele>2652.899902</ele>
<time>2018-06-28T14:10:49Z</time>
</trkpt>
<trkpt lat="44.798285140" lon="6.445743380">
  <ele>2655.800048</ele>
<time>2018-06-28T14:11:18Z</time>
</trkpt>
<trkpt lat="44.798328390" lon="6.445851670">
  <ele>2651.399902</ele>
<time>2018-06-28T14:11:45Z</time>
</trkpt>
<trkpt lat="44.798390080" lon="6.445935160">
  <ele>2648.899902</ele>
<time>2018-06-28T14:12:08Z</time>
</trkpt>
<trkpt lat="44.798415060" lon="6.446055020">
  <ele>2645.699951</ele>
<time>2018-06-28T14:12:22Z</time>
</trkpt>
<trkpt lat="44.798436680" lon="6.446171700">
  <ele>2645.600097</ele>
<time>2018-06-28T14:12:33Z</time>
</trkpt>
<trkpt lat="44.798410030" lon="6.446286700">
  <ele>2648.100097</ele>
<time>2018-06-28T14:12:55Z</time>
</trkpt>
<trkpt lat="44.798345150" lon="6.446370010">
  <ele>2653.800048</ele>
<time>2018-06-28T14:13:58Z</time>
</trkpt>
<trkpt lat="44.798336770" lon="6.446491720">
  <ele>2651.600097</ele>
<time>2018-06-28T14:14:57Z</time>
</trkpt>
<trkpt lat="44.798403490" lon="6.446571680">
  <ele>2649.399902</ele>
<time>2018-06-28T14:15:14Z</time>
</trkpt>
<trkpt lat="44.798478420" lon="6.446636720">
  <ele>2653.500000</ele>
<time>2018-06-28T14:15:44Z</time>
</trkpt>
<trkpt lat="44.798430140" lon="6.446743340">
  <ele>2653.500000</ele>
<time>2018-06-28T14:16:06Z</time>
</trkpt>
<trkpt lat="44.798445060" lon="6.446848450">
  <ele>2648.899902</ele>
<time>2018-06-28T14:16:33Z</time>
</trkpt>
<trkpt lat="44.798466690" lon="6.446960100">
  <ele>2646.000000</ele>
<time>2018-06-28T14:16:46Z</time>
</trkpt>
<trkpt lat="44.798516810" lon="6.447060010">
  <ele>2644.899902</ele>
<time>2018-06-28T14:17:24Z</time>
</trkpt>
<trkpt lat="44.798573470" lon="6.447158410">
  <ele>2642.800048</ele>
<time>2018-06-28T14:17:38Z</time>
</trkpt>
<trkpt lat="44.798626780" lon="6.447260000">
  <ele>2643.100097</ele>
<time>2018-06-28T14:17:53Z</time>
</trkpt>
<trkpt lat="44.798706750" lon="6.447313480">
  <ele>2645.600097</ele>
<time>2018-06-28T14:18:08Z</time>
</trkpt>
<trkpt lat="44.798776820" lon="6.447385060">
  <ele>2648.899902</ele>
<time>2018-06-28T14:18:24Z</time>
</trkpt>
<trkpt lat="44.798831800" lon="6.447485140">
  <ele>2653.100097</ele>
<time>2018-06-28T14:18:41Z</time>
</trkpt>
<trkpt lat="44.798880080" lon="6.447591760">
  <ele>2656.399902</ele>
<time>2018-06-28T14:19:19Z</time>
</trkpt>
<trkpt lat="44.798900030" lon="6.447713460">
  <ele>2657.699951</ele>
<time>2018-06-28T14:19:40Z</time>
</trkpt>
<trkpt lat="44.798950160" lon="6.447816730">
  <ele>2660.399902</ele>
<time>2018-06-28T14:20:00Z</time>
</trkpt>
<trkpt lat="44.798990050" lon="6.447928380">
  <ele>2662.500000</ele>
<time>2018-06-28T14:20:18Z</time>
</trkpt>
<trkpt lat="44.798990050" lon="6.448051760">
  <ele>2662.899902</ele>
<time>2018-06-28T14:20:31Z</time>
</trkpt>
<trkpt lat="44.798996760" lon="6.448170110">
  <ele>2665.300048</ele>
<time>2018-06-28T14:20:47Z</time>
</trkpt>
<trkpt lat="44.799050070" lon="6.448268350">
  <ele>2668.600097</ele>
<time>2018-06-28T14:21:11Z</time>
</trkpt>
<trkpt lat="44.799071690" lon="6.448386700">
  <ele>2669.699951</ele>
<time>2018-06-28T14:21:23Z</time>
</trkpt>
<trkpt lat="44.799060130" lon="6.448503370">
  <ele>2670.500000</ele>
<time>2018-06-28T14:21:35Z</time>
</trkpt>
<trkpt lat="44.799066670" lon="6.448615020">
  <ele>2671.199951</ele>
<time>2018-06-28T14:22:09Z</time>
</trkpt>
<trkpt lat="44.799125000" lon="6.448710070">
  <ele>2673.199951</ele>
<time>2018-06-28T14:22:24Z</time>
</trkpt>
<trkpt lat="44.799181660" lon="6.448801770">
  <ele>2674.000000</ele>
<time>2018-06-28T14:22:36Z</time>
</trkpt>
<trkpt lat="44.799248380" lon="6.448871670">
  <ele>2675.199951</ele>
<time>2018-06-28T14:22:47Z</time>
</trkpt>
<trkpt lat="44.799320130" lon="6.448945100">
  <ele>2676.600097</ele>
<time>2018-06-28T14:23:00Z</time>
</trkpt>
<trkpt lat="44.799385010" lon="6.449025060">
  <ele>2677.899902</ele>
<time>2018-06-28T14:23:12Z</time>
</trkpt>
<trkpt lat="44.799443350" lon="6.449120110">
  <ele>2679.600097</ele>
<time>2018-06-28T14:23:28Z</time>
</trkpt>
<trkpt lat="44.799495150" lon="6.449211810">
  <ele>2679.199951</ele>
<time>2018-06-28T14:23:45Z</time>
</trkpt>
<trkpt lat="44.799545100" lon="6.449306700">
  <ele>2678.199951</ele>
<time>2018-06-28T14:23:53Z</time>
</trkpt>
<trkpt lat="44.799586680" lon="6.449413480">
  <ele>2676.800048</ele>
<time>2018-06-28T14:24:01Z</time>
</trkpt>
<trkpt lat="44.799646690" lon="6.449501830">
  <ele>2676.500000</ele>
<time>2018-06-28T14:24:08Z</time>
</trkpt>
<trkpt lat="44.799708380" lon="6.449575080">
  <ele>2676.399902</ele>
<time>2018-06-28T14:24:17Z</time>
</trkpt>
<trkpt lat="44.799743420" lon="6.449683380">
  <ele>2676.899902</ele>
<time>2018-06-28T14:24:27Z</time>
</trkpt>
<trkpt lat="44.799763370" lon="6.449790000">
  <ele>2676.199951</ele>
<time>2018-06-28T14:24:35Z</time>
</trkpt>
<trkpt lat="44.799808460" lon="6.449898460">
  <ele>2674.800048</ele>
<time>2018-06-28T14:24:44Z</time>
</trkpt>
<trkpt lat="44.799863450" lon="6.449991660">
  <ele>2676.199951</ele>
<time>2018-06-28T14:24:55Z</time>
</trkpt>
<trkpt lat="44.799906700" lon="6.450093420">
  <ele>2678.199951</ele>
<time>2018-06-28T14:25:07Z</time>
</trkpt>
<trkpt lat="44.799951790" lon="6.450188470">
  <ele>2679.100097</ele>
<time>2018-06-28T14:25:19Z</time>
</trkpt>
<trkpt lat="44.800003430" lon="6.450285030">
  <ele>2680.800048</ele>
<time>2018-06-28T14:25:31Z</time>
</trkpt>
<trkpt lat="44.800043490" lon="6.450390140">
  <ele>2681.600097</ele>
<time>2018-06-28T14:25:41Z</time>
</trkpt>
<trkpt lat="44.800076680" lon="6.450501790">
  <ele>2682.399902</ele>
<time>2018-06-28T14:25:51Z</time>
</trkpt>
<trkpt lat="44.800110040" lon="6.450611760">
  <ele>2682.899902</ele>
<time>2018-06-28T14:26:00Z</time>
</trkpt>
<trkpt lat="44.800155140" lon="6.450716700">
  <ele>2684.899902</ele>
<time>2018-06-28T14:26:12Z</time>
</trkpt>
<trkpt lat="44.800206770" lon="6.450818460">
  <ele>2686.699951</ele>
<time>2018-06-28T14:26:24Z</time>
</trkpt>
<trkpt lat="44.800250020" lon="6.450923400">
  <ele>2687.600097</ele>
<time>2018-06-28T14:26:36Z</time>
</trkpt>
<trkpt lat="44.800305010" lon="6.451020120">
  <ele>2688.600097</ele>
<time>2018-06-28T14:26:49Z</time>
</trkpt>
<trkpt lat="44.800298470" lon="6.451145010">
  <ele>2687.199951</ele>
<time>2018-06-28T14:28:27Z</time>
</trkpt>
<trkpt lat="44.800288410" lon="6.451265040">
  <ele>2687.000000</ele>
<time>2018-06-28T14:28:35Z</time>
</trkpt>
<trkpt lat="44.800340040" lon="6.451358420">
  <ele>2685.800048</ele>
<time>2018-06-28T14:28:47Z</time>
</trkpt>
<trkpt lat="44.800353460" lon="6.451473420">
  <ele>2687.000000</ele>
<time>2018-06-28T14:28:56Z</time>
</trkpt>
<trkpt lat="44.800375080" lon="6.451583390">
  <ele>2687.300048</ele>
<time>2018-06-28T14:29:05Z</time>
</trkpt>
<trkpt lat="44.800395030" lon="6.451706770">
  <ele>2688.899902</ele>
<time>2018-06-28T14:29:17Z</time>
</trkpt>
<trkpt lat="44.800403410" lon="6.451826800">
  <ele>2690.000000</ele>
<time>2018-06-28T14:29:28Z</time>
</trkpt>
<trkpt lat="44.800396710" lon="6.451948340">
  <ele>2691.000000</ele>
<time>2018-06-28T14:29:39Z</time>
</trkpt>
<trkpt lat="44.800401730" lon="6.452073390">
  <ele>2693.000000</ele>
<time>2018-06-28T14:29:52Z</time>
</trkpt>
<trkpt lat="44.800423360" lon="6.452188390">
  <ele>2695.100097</ele>
<time>2018-06-28T14:30:05Z</time>
</trkpt>
<trkpt lat="44.800455040" lon="6.452306750">
  <ele>2697.199951</ele>
<time>2018-06-28T14:30:18Z</time>
</trkpt>
<trkpt lat="44.800500140" lon="6.452408330">
  <ele>2699.600097</ele>
<time>2018-06-28T14:30:41Z</time>
</trkpt>
<trkpt lat="44.800573400" lon="6.452336750">
  <ele>2704.199951</ele>
<time>2018-06-28T14:31:02Z</time>
</trkpt>
<trkpt lat="44.800586810" lon="6.452218400">
  <ele>2705.600097</ele>
<time>2018-06-28T14:31:15Z</time>
</trkpt>
<trkpt lat="44.800670120" lon="6.452186720">
  <ele>2710.100097</ele>
<time>2018-06-28T14:31:47Z</time>
</trkpt>
<trkpt lat="44.800728460" lon="6.452280090">
  <ele>2714.300048</ele>
<time>2018-06-28T14:32:07Z</time>
</trkpt>
<trkpt lat="44.800803400" lon="6.452341780">
  <ele>2716.000000</ele>
<time>2018-06-28T14:32:25Z</time>
</trkpt>
<trkpt lat="44.800873470" lon="6.452416720">
  <ele>2719.600097</ele>
<time>2018-06-28T14:32:47Z</time>
</trkpt>
<trkpt lat="44.800953430" lon="6.452471700">
  <ele>2723.899902</ele>
<time>2018-06-28T14:33:11Z</time>
</trkpt>
<trkpt lat="44.801023340" lon="6.452538420">
  <ele>2727.199951</ele>
<time>2018-06-28T14:33:34Z</time>
</trkpt>
<trkpt lat="44.801071780" lon="6.452636830">
  <ele>2728.100097</ele>
<time>2018-06-28T14:33:47Z</time>
</trkpt>
<trkpt lat="44.801125090" lon="6.452733390">
  <ele>2729.100097</ele>
<time>2018-06-28T14:33:59Z</time>
</trkpt>
<trkpt lat="44.801198350" lon="6.452796750">
  <ele>2731.399902</ele>
<time>2018-06-28T14:34:14Z</time>
</trkpt>
<trkpt lat="44.801265070" lon="6.452876720">
  <ele>2733.199951</ele>
<time>2018-06-28T14:34:30Z</time>
</trkpt>
<trkpt lat="44.801315030" lon="6.452980150">
  <ele>2735.199951</ele>
<time>2018-06-28T14:34:45Z</time>
</trkpt>
<trkpt lat="44.801386780" lon="6.453041670">
  <ele>2737.899902</ele>
<time>2018-06-28T14:35:06Z</time>
</trkpt>
<trkpt lat="44.801456680" lon="6.453113420">
  <ele>2739.500000</ele>
<time>2018-06-28T14:35:22Z</time>
</trkpt>
<trkpt lat="44.801525080" lon="6.453188350">
  <ele>2741.699951</ele>
<time>2018-06-28T14:35:39Z</time>
</trkpt>
<trkpt lat="44.801583420" lon="6.453283410">
  <ele>2743.800048</ele>
<time>2018-06-28T14:35:56Z</time>
</trkpt>
<trkpt lat="44.801666730" lon="6.453323470">
  <ele>2746.800048</ele>
<time>2018-06-28T14:36:25Z</time>
</trkpt>
<trkpt lat="44.801738480" lon="6.453380130">
  <ele>2747.199951</ele>
<time>2018-06-28T14:36:38Z</time>
</trkpt>
<trkpt lat="44.801808390" lon="6.453446680">
  <ele>2747.399902</ele>
<time>2018-06-28T14:36:48Z</time>
</trkpt>
<trkpt lat="44.801883490" lon="6.453506700">
  <ele>2747.899902</ele>
<time>2018-06-28T14:37:00Z</time>
</trkpt>
<trkpt lat="44.801921710" lon="6.453615160">
  <ele>2746.899902</ele>
<time>2018-06-28T14:41:05Z</time>
</trkpt>
<trkpt lat="44.801915000" lon="6.453733350">
  <ele>2744.300048</ele>
<time>2018-06-28T14:41:32Z</time>
</trkpt>
<trkpt lat="44.801923390" lon="6.453858400">
  <ele>2740.800048</ele>
<time>2018-06-28T14:41:45Z</time>
</trkpt>
<trkpt lat="44.801966800" lon="6.453961670">
  <ele>2737.699951</ele>
<time>2018-06-28T14:41:56Z</time>
</trkpt>
<trkpt lat="44.802001670" lon="6.454070130">
  <ele>2734.199951</ele>
<time>2018-06-28T14:42:10Z</time>
</trkpt>
<trkpt lat="44.801983400" lon="6.454193340">
  <ele>2731.000000</ele>
<time>2018-06-28T14:42:23Z</time>
</trkpt>
<trkpt lat="44.801985080" lon="6.454311700">
  <ele>2726.899902</ele>
<time>2018-06-28T14:42:39Z</time>
</trkpt>
<trkpt lat="44.802030000" lon="6.454413450">
  <ele>2724.600097</ele>
<time>2018-06-28T14:42:49Z</time>
</trkpt>
<trkpt lat="44.802091690" lon="6.454503480">
  <ele>2721.199951</ele>
<time>2018-06-28T14:43:00Z</time>
</trkpt>
<trkpt lat="44.802133440" lon="6.454610090">
  <ele>2720.000000</ele>
<time>2018-06-28T14:43:10Z</time>
</trkpt>
<trkpt lat="44.802188420" lon="6.454708330">
  <ele>2718.199951</ele>
<time>2018-06-28T14:43:20Z</time>
</trkpt>
<trkpt lat="44.802246760" lon="6.454791810">
  <ele>2715.000000</ele>
<time>2018-06-28T14:43:31Z</time>
</trkpt>
<trkpt lat="44.802256820" lon="6.454911670">
  <ele>2711.800048</ele>
<time>2018-06-28T14:43:43Z</time>
</trkpt>
<trkpt lat="44.802271740" lon="6.455031700">
  <ele>2707.899902</ele>
<time>2018-06-28T14:43:57Z</time>
</trkpt>
<trkpt lat="44.802301740" lon="6.455146700">
  <ele>2702.899902</ele>
<time>2018-06-28T14:44:14Z</time>
</trkpt>
<trkpt lat="44.802301740" lon="6.455260030">
  <ele>2699.899902</ele>
<time>2018-06-28T14:44:26Z</time>
</trkpt>
<trkpt lat="44.802371820" lon="6.455270080">
  <ele>2696.500000</ele>
<time>2018-06-28T14:44:58Z</time>
</trkpt>
<trkpt lat="44.802431660" lon="6.455278470">
  <ele>2692.899902</ele>
<time>2018-06-28T14:45:21Z</time>
</trkpt>
<trkpt lat="44.802511800" lon="6.455253490">
  <ele>2692.100097</ele>
<time>2018-06-28T14:45:24Z</time>
</trkpt>
<trkpt lat="44.802596790" lon="6.455240080">
  <ele>2690.000000</ele>
<time>2018-06-28T14:45:39Z</time>
</trkpt>
<trkpt lat="44.802676750" lon="6.455191800">
  <ele>2686.300048</ele>
<time>2018-06-28T14:45:48Z</time>
</trkpt>
<trkpt lat="44.802761740" lon="6.455203360">
  <ele>2682.199951</ele>
<time>2018-06-28T14:46:08Z</time>
</trkpt>
<trkpt lat="44.802831820" lon="6.455275110">
  <ele>2679.199951</ele>
<time>2018-06-28T14:46:18Z</time>
</trkpt>
<trkpt lat="44.802915130" lon="6.455316690">
  <ele>2676.399902</ele>
<time>2018-06-28T14:46:31Z</time>
</trkpt>
<trkpt lat="44.802936760" lon="6.455438390">
  <ele>2671.600097</ele>
<time>2018-06-28T14:46:56Z</time>
</trkpt>
<trkpt lat="44.803023430" lon="6.455405030">
  <ele>2668.800048</ele>
<time>2018-06-28T14:47:09Z</time>
</trkpt>
<trkpt lat="44.803110100" lon="6.455411740">
  <ele>2667.600097</ele>
<time>2018-06-28T14:47:24Z</time>
</trkpt>
<trkpt lat="44.803198440" lon="6.455400000">
  <ele>2664.899902</ele>
<time>2018-06-28T14:47:47Z</time>
</trkpt>
<trkpt lat="44.803278400" lon="6.455346690">
  <ele>2659.899902</ele>
<time>2018-06-28T14:48:09Z</time>
</trkpt>
<trkpt lat="44.803331710" lon="6.455446770">
  <ele>2657.399902</ele>
<time>2018-06-28T14:48:22Z</time>
</trkpt>
<trkpt lat="44.803415030" lon="6.455490030">
  <ele>2653.899902</ele>
<time>2018-06-28T14:48:35Z</time>
</trkpt>
<trkpt lat="44.803496670" lon="6.455441750">
  <ele>2649.800048</ele>
<time>2018-06-28T14:48:55Z</time>
</trkpt>
<trkpt lat="44.803576800" lon="6.455496730">
  <ele>2646.699951</ele>
<time>2018-06-28T14:49:10Z</time>
</trkpt>
<trkpt lat="44.803640000" lon="6.455410060">
  <ele>2644.000000</ele>
<time>2018-06-28T14:49:20Z</time>
</trkpt>
<trkpt lat="44.803698340" lon="6.455495050">
  <ele>2641.199951</ele>
<time>2018-06-28T14:49:31Z</time>
</trkpt>
<trkpt lat="44.803763380" lon="6.455576690">
  <ele>2638.100097</ele>
<time>2018-06-28T14:49:45Z</time>
</trkpt>
<trkpt lat="44.803845020" lon="6.455613410">
  <ele>2634.300048</ele>
<time>2018-06-28T14:50:03Z</time>
</trkpt>
<trkpt lat="44.803920120" lon="6.455671750">
  <ele>2630.699951</ele>
<time>2018-06-28T14:50:17Z</time>
</trkpt>
<trkpt lat="44.804005110" lon="6.455673420">
  <ele>2627.199951</ele>
<time>2018-06-28T14:50:31Z</time>
</trkpt>
<trkpt lat="44.804086750" lon="6.455683480">
  <ele>2623.800048</ele>
<time>2018-06-28T14:50:44Z</time>
</trkpt>
<trkpt lat="44.804168390" lon="6.455656830">
  <ele>2621.199951</ele>
<time>2018-06-28T14:50:53Z</time>
</trkpt>
<trkpt lat="44.804250030" lon="6.455643410">
  <ele>2619.399902</ele>
<time>2018-06-28T14:51:01Z</time>
</trkpt>
<trkpt lat="44.804335030" lon="6.455648440">
  <ele>2617.000000</ele>
<time>2018-06-28T14:51:09Z</time>
</trkpt>
<trkpt lat="44.804333350" lon="6.455775010">
  <ele>2612.100097</ele>
<time>2018-06-28T14:51:35Z</time>
</trkpt>
<trkpt lat="44.804303340" lon="6.455888330">
  <ele>2611.699951</ele>
<time>2018-06-28T14:51:56Z</time>
</trkpt>
<trkpt lat="44.804350110" lon="6.455985060">
  <ele>2609.399902</ele>
<time>2018-06-28T14:52:09Z</time>
</trkpt>
<trkpt lat="44.804288420" lon="6.456045070">
  <ele>2607.899902</ele>
<time>2018-06-28T14:52:23Z</time>
</trkpt>
<trkpt lat="44.804323460" lon="6.456160070">
  <ele>2605.399902</ele>
<time>2018-06-28T14:52:50Z</time>
</trkpt>
<trkpt lat="44.804403420" lon="6.456205000">
  <ele>2601.000000</ele>
<time>2018-06-28T14:53:16Z</time>
</trkpt>
<trkpt lat="44.804486740" lon="6.456166780">
  <ele>2596.399902</ele>
<time>2018-06-28T14:53:28Z</time>
</trkpt>
<trkpt lat="44.804568380" lon="6.456158400">
  <ele>2591.000000</ele>
<time>2018-06-28T14:53:44Z</time>
</trkpt>
<trkpt lat="44.804656720" lon="6.456148340">
  <ele>2587.100097</ele>
<time>2018-06-28T14:53:57Z</time>
</trkpt>
<trkpt lat="44.804743390" lon="6.456116820">
  <ele>2584.899902</ele>
<time>2018-06-28T14:54:08Z</time>
</trkpt>
<trkpt lat="44.804825030" lon="6.456111790">
  <ele>2583.800048</ele>
<time>2018-06-28T14:54:16Z</time>
</trkpt>
<trkpt lat="44.804911700" lon="6.456093350">
  <ele>2579.699951</ele>
<time>2018-06-28T14:54:33Z</time>
</trkpt>
<trkpt lat="44.804998370" lon="6.456090000">
  <ele>2576.300048</ele>
<time>2018-06-28T14:54:47Z</time>
</trkpt>
<trkpt lat="44.805083360" lon="6.456090000">
  <ele>2574.800048</ele>
<time>2018-06-28T14:55:00Z</time>
</trkpt>
<trkpt lat="44.805168360" lon="6.456090000">
  <ele>2572.899902</ele>
<time>2018-06-28T14:55:13Z</time>
</trkpt>
<trkpt lat="44.805256700" lon="6.456080110">
  <ele>2570.000000</ele>
<time>2018-06-28T14:55:26Z</time>
</trkpt>
<trkpt lat="44.805340020" lon="6.456081790">
  <ele>2567.699951</ele>
<time>2018-06-28T14:55:38Z</time>
</trkpt>
<trkpt lat="44.805418470" lon="6.456115150">
  <ele>2562.800048</ele>
<time>2018-06-28T14:55:58Z</time>
</trkpt>
<trkpt lat="44.805505140" lon="6.456131740">
  <ele>2561.600097</ele>
<time>2018-06-28T14:56:04Z</time>
</trkpt>
<trkpt lat="44.805585100" lon="6.456130070">
  <ele>2560.399902</ele>
<time>2018-06-28T14:56:10Z</time>
</trkpt>
<trkpt lat="44.805660040" lon="6.456088490">
  <ele>2558.199951</ele>
<time>2018-06-28T14:56:18Z</time>
</trkpt>
<trkpt lat="44.805743350" lon="6.456048430">
  <ele>2555.399902</ele>
<time>2018-06-28T14:56:29Z</time>
</trkpt>
<trkpt lat="44.805826670" lon="6.456078430">
  <ele>2552.500000</ele>
<time>2018-06-28T14:56:41Z</time>
</trkpt>
<trkpt lat="44.805876790" lon="6.456175160">
  <ele>2554.199951</ele>
<time>2018-06-28T14:57:26Z</time>
</trkpt>
<trkpt lat="44.805936810" lon="6.456263340">
  <ele>2553.199951</ele>
<time>2018-06-28T14:57:44Z</time>
</trkpt>
<trkpt lat="44.805990120" lon="6.456356710">
  <ele>2550.000000</ele>
<time>2018-06-28T14:58:00Z</time>
</trkpt>
<trkpt lat="44.806060020" lon="6.456411700">
  <ele>2546.500000</ele>
<time>2018-06-28T14:58:38Z</time>
</trkpt>
<trkpt lat="44.806143340" lon="6.456445060">
  <ele>2544.899902</ele>
<time>2018-06-28T14:58:54Z</time>
</trkpt>
<trkpt lat="44.806185080" lon="6.456551680">
  <ele>2534.199951</ele>
<time>2018-06-28T14:59:37Z</time>
</trkpt>
<trkpt lat="44.806266720" lon="6.456595100">
  <ele>2527.399902</ele>
<time>2018-06-28T15:00:04Z</time>
</trkpt>
<trkpt lat="44.806346680" lon="6.456576820">
  <ele>2522.699951</ele>
<time>2018-06-28T15:00:16Z</time>
</trkpt>
<trkpt lat="44.806390100" lon="6.456683440">
  <ele>2517.300048</ele>
<time>2018-06-28T15:00:33Z</time>
</trkpt>
<trkpt lat="44.806475090" lon="6.456688470">
  <ele>2513.600097</ele>
<time>2018-06-28T15:00:46Z</time>
</trkpt>
<trkpt lat="44.806563440" lon="6.456683440">
  <ele>2509.600097</ele>
<time>2018-06-28T15:01:00Z</time>
</trkpt>
<trkpt lat="44.806651780" lon="6.456673380">
  <ele>2505.600097</ele>
<time>2018-06-28T15:01:14Z</time>
</trkpt>
<trkpt lat="44.806735100" lon="6.456708420">
  <ele>2502.300048</ele>
<time>2018-06-28T15:01:28Z</time>
</trkpt>
<trkpt lat="44.806820090" lon="6.456746810">
  <ele>2498.500000</ele>
<time>2018-06-28T15:01:41Z</time>
</trkpt>
<trkpt lat="44.806891670" lon="6.456820070">
  <ele>2494.100097</ele>
<time>2018-06-28T15:02:04Z</time>
</trkpt>
<trkpt lat="44.806975160" lon="6.456831800">
  <ele>2489.800048</ele>
<time>2018-06-28T15:02:23Z</time>
</trkpt>
<trkpt lat="44.807058470" lon="6.456846720">
  <ele>2485.500000</ele>
<time>2018-06-28T15:02:41Z</time>
</trkpt>
<trkpt lat="44.807136760" lon="6.456883430">
  <ele>2483.600097</ele>
<time>2018-06-28T15:02:50Z</time>
</trkpt>
<trkpt lat="44.807210020" lon="6.456953340">
  <ele>2481.199951</ele>
<time>2018-06-28T15:03:14Z</time>
</trkpt>
<trkpt lat="44.807283440" lon="6.456998430">
  <ele>2479.100097</ele>
<time>2018-06-28T15:03:25Z</time>
</trkpt>
<trkpt lat="44.807341780" lon="6.457078400">
  <ele>2475.300048</ele>
<time>2018-06-28T15:03:34Z</time>
</trkpt>
<trkpt lat="44.807406830" lon="6.457148470">
  <ele>2475.000000</ele>
<time>2018-06-28T15:03:41Z</time>
</trkpt>
<trkpt lat="44.807476730" lon="6.457213340">
  <ele>2474.899902</ele>
<time>2018-06-28T15:03:49Z</time>
</trkpt>
<trkpt lat="44.807546800" lon="6.457291800">
  <ele>2473.199951</ele>
<time>2018-06-28T15:03:57Z</time>
</trkpt>
<trkpt lat="44.807618390" lon="6.457346780">
  <ele>2472.199951</ele>
<time>2018-06-28T15:04:06Z</time>
</trkpt>
<trkpt lat="44.807676720" lon="6.457425070">
  <ele>2474.199951</ele>
<time>2018-06-28T15:04:17Z</time>
</trkpt>
<trkpt lat="44.807748470" lon="6.457495140">
  <ele>2475.500000</ele>
<time>2018-06-28T15:04:24Z</time>
</trkpt>
<trkpt lat="44.807798430" lon="6.457596730">
  <ele>2476.600097</ele>
<time>2018-06-28T15:04:31Z</time>
</trkpt>
<trkpt lat="44.807855090" lon="6.457690110">
  <ele>2476.100097</ele>
<time>2018-06-28T15:04:49Z</time>
</trkpt>
<trkpt lat="44.807915110" lon="6.457756830">
  <ele>2476.300048</ele>
<time>2018-06-28T15:05:00Z</time>
</trkpt>
<trkpt lat="44.807990040" lon="6.457818350">
  <ele>2474.600097</ele>
<time>2018-06-28T15:05:07Z</time>
</trkpt>
<trkpt lat="44.808060110" lon="6.457871830">
  <ele>2474.199951</ele>
<time>2018-06-28T15:05:14Z</time>
</trkpt>
<trkpt lat="44.808128340" lon="6.457938380">
  <ele>2472.600097</ele>
<time>2018-06-28T15:05:21Z</time>
</trkpt>
<trkpt lat="44.808195060" lon="6.457995040">
  <ele>2470.800048</ele>
<time>2018-06-28T15:05:28Z</time>
</trkpt>
<trkpt lat="44.808258430" lon="6.458080030">
  <ele>2468.800048</ele>
<time>2018-06-28T15:05:36Z</time>
</trkpt>
<trkpt lat="44.808333360" lon="6.458141720">
  <ele>2467.199951</ele>
<time>2018-06-28T15:05:45Z</time>
</trkpt>
<trkpt lat="44.808403430" lon="6.458211800">
  <ele>2465.399902</ele>
<time>2018-06-28T15:05:54Z</time>
</trkpt>
<trkpt lat="44.808471660" lon="6.458288410">
  <ele>2463.000000</ele>
<time>2018-06-28T15:06:04Z</time>
</trkpt>
<trkpt lat="44.808545090" lon="6.458348420">
  <ele>2460.699951</ele>
<time>2018-06-28T15:06:14Z</time>
</trkpt>
<trkpt lat="44.808613490" lon="6.458421680">
  <ele>2458.100097</ele>
<time>2018-06-28T15:06:24Z</time>
</trkpt>
<trkpt lat="44.808686740" lon="6.458488400">
  <ele>2455.500000</ele>
<time>2018-06-28T15:06:35Z</time>
</trkpt>
<trkpt lat="44.808756820" lon="6.458551770">
  <ele>2453.100097</ele>
<time>2018-06-28T15:06:45Z</time>
</trkpt>
<trkpt lat="44.808828400" lon="6.458615130">
  <ele>2450.600097</ele>
<time>2018-06-28T15:06:54Z</time>
</trkpt>
<trkpt lat="44.808900150" lon="6.458681690">
  <ele>2446.899902</ele>
<time>2018-06-28T15:07:06Z</time>
</trkpt>
<trkpt lat="44.808981790" lon="6.458723430">
  <ele>2446.100097</ele>
<time>2018-06-28T15:07:18Z</time>
</trkpt>
<trkpt lat="44.809048340" lon="6.458796690">
  <ele>2444.500000</ele>
<time>2018-06-28T15:07:36Z</time>
</trkpt>
<trkpt lat="44.809096790" lon="6.458890060">
  <ele>2442.300048</ele>
<time>2018-06-28T15:07:46Z</time>
</trkpt>
<trkpt lat="44.809170040" lon="6.458963490">
  <ele>2439.600097</ele>
<time>2018-06-28T15:07:54Z</time>
</trkpt>
<trkpt lat="44.809235090" lon="6.459033390">
  <ele>2437.300048</ele>
<time>2018-06-28T15:08:03Z</time>
</trkpt>
<trkpt lat="44.809306670" lon="6.459100110">
  <ele>2434.100097</ele>
<time>2018-06-28T15:08:14Z</time>
</trkpt>
<trkpt lat="44.809370040" lon="6.459186780">
  <ele>2431.100097</ele>
<time>2018-06-28T15:08:26Z</time>
</trkpt>
<trkpt lat="44.809443460" lon="6.459256680">
  <ele>2428.399902</ele>
<time>2018-06-28T15:08:36Z</time>
</trkpt>
<trkpt lat="44.809498450" lon="6.459346710">
  <ele>2425.699951</ele>
<time>2018-06-28T15:08:45Z</time>
</trkpt>
<trkpt lat="44.809553430" lon="6.459428350">
  <ele>2423.800048</ele>
<time>2018-06-28T15:08:53Z</time>
</trkpt>
<trkpt lat="44.809616800" lon="6.459516690">
  <ele>2422.300048</ele>
<time>2018-06-28T15:09:01Z</time>
</trkpt>
<trkpt lat="44.809683350" lon="6.459593470">
  <ele>2420.500000</ele>
<time>2018-06-28T15:09:09Z</time>
</trkpt>
<trkpt lat="44.809770020" lon="6.459618450">
  <ele>2419.500000</ele>
<time>2018-06-28T15:09:23Z</time>
</trkpt>
<trkpt lat="44.809850150" lon="6.459648460">
  <ele>2418.699951</ele>
<time>2018-06-28T15:09:31Z</time>
</trkpt>
<trkpt lat="44.809911670" lon="6.459740150">
  <ele>2417.800048</ele>
<time>2018-06-28T15:09:39Z</time>
</trkpt>
<trkpt lat="44.809988450" lon="6.459801680">
  <ele>2416.199951</ele>
<time>2018-06-28T15:09:46Z</time>
</trkpt>
<trkpt lat="44.810053330" lon="6.459870070">
  <ele>2414.399902</ele>
<time>2018-06-28T15:09:53Z</time>
</trkpt>
<trkpt lat="44.810106810" lon="6.459963450">
  <ele>2412.000000</ele>
<time>2018-06-28T15:10:01Z</time>
</trkpt>
<trkpt lat="44.810165140" lon="6.460056820">
  <ele>2410.500000</ele>
<time>2018-06-28T15:10:09Z</time>
</trkpt>
<trkpt lat="44.810218450" lon="6.460153380">
  <ele>2408.100097</ele>
<time>2018-06-28T15:10:18Z</time>
</trkpt>
<trkpt lat="44.810261700" lon="6.460253460">
  <ele>2406.000000</ele>
<time>2018-06-28T15:10:26Z</time>
</trkpt>
<trkpt lat="44.810308470" lon="6.460345160">
  <ele>2404.800048</ele>
<time>2018-06-28T15:10:33Z</time>
</trkpt>
<trkpt lat="44.810365140" lon="6.460430150">
  <ele>2403.000000</ele>
<time>2018-06-28T15:10:40Z</time>
</trkpt>
<trkpt lat="44.810426830" lon="6.460511790">
  <ele>2401.000000</ele>
<time>2018-06-28T15:10:49Z</time>
</trkpt>
<trkpt lat="44.810488350" lon="6.460591750">
  <ele>2398.500000</ele>
<time>2018-06-28T15:10:59Z</time>
</trkpt>
<trkpt lat="44.810561770" lon="6.460633330">
  <ele>2397.300048</ele>
<time>2018-06-28T15:11:07Z</time>
</trkpt>
<trkpt lat="44.810641740" lon="6.460685130">
  <ele>2395.000000</ele>
<time>2018-06-28T15:11:16Z</time>
</trkpt>
<trkpt lat="44.810720030" lon="6.460745140">
  <ele>2392.199951</ele>
<time>2018-06-28T15:11:27Z</time>
</trkpt>
<trkpt lat="44.810796800" lon="6.460795100">
  <ele>2389.500000</ele>
<time>2018-06-28T15:11:36Z</time>
</trkpt>
<trkpt lat="44.810863360" lon="6.460875060">
  <ele>2383.800048</ele>
<time>2018-06-28T15:12:07Z</time>
</trkpt>
<trkpt lat="44.810871740" lon="6.460993420">
  <ele>2380.199951</ele>
<time>2018-06-28T15:12:23Z</time>
</trkpt>
<trkpt lat="44.810855140" lon="6.461111770">
  <ele>2377.699951</ele>
<time>2018-06-28T15:12:40Z</time>
</trkpt>
<trkpt lat="44.810938460" lon="6.461138420">
  <ele>2374.800048</ele>
<time>2018-06-28T15:12:56Z</time>
</trkpt>
<trkpt lat="44.810975000" lon="6.461251750">
  <ele>2372.300048</ele>
<time>2018-06-28T15:13:11Z</time>
</trkpt>
<trkpt lat="44.810976680" lon="6.461378480">
  <ele>2370.000000</ele>
<time>2018-06-28T15:13:32Z</time>
</trkpt>
<trkpt lat="44.811021770" lon="6.461483420">
  <ele>2367.000000</ele>
<time>2018-06-28T15:13:54Z</time>
</trkpt>
<trkpt lat="44.810996800" lon="6.461605130">
  <ele>2360.500000</ele>
<time>2018-06-28T15:14:19Z</time>
</trkpt>
<trkpt lat="44.810960080" lon="6.461718450">
  <ele>2356.500000</ele>
<time>2018-06-28T15:14:33Z</time>
</trkpt>
<trkpt lat="44.810951700" lon="6.461843340">
  <ele>2352.000000</ele>
<time>2018-06-28T15:14:46Z</time>
</trkpt>
<trkpt lat="44.811015070" lon="6.461910060">
  <ele>2349.500000</ele>
<time>2018-06-28T15:14:55Z</time>
</trkpt>
<trkpt lat="44.811033340" lon="6.462025060">
  <ele>2345.899902</ele>
<time>2018-06-28T15:15:05Z</time>
</trkpt>
<trkpt lat="44.811056810" lon="6.462140060">
  <ele>2342.500000</ele>
<time>2018-06-28T15:15:24Z</time>
</trkpt>
<trkpt lat="44.811068380" lon="6.462251710">
  <ele>2340.199951</ele>
<time>2018-06-28T15:15:32Z</time>
</trkpt>
<trkpt lat="44.811108440" lon="6.462351790">
  <ele>2337.899902</ele>
<time>2018-06-28T15:15:39Z</time>
</trkpt>
<trkpt lat="44.811146660" lon="6.462461760">
  <ele>2335.300048</ele>
<time>2018-06-28T15:15:48Z</time>
</trkpt>
<trkpt lat="44.811188410" lon="6.462563350">
  <ele>2332.199951</ele>
<time>2018-06-28T15:15:57Z</time>
</trkpt>
<trkpt lat="44.811241710" lon="6.462653370">
  <ele>2329.300048</ele>
<time>2018-06-28T15:16:09Z</time>
</trkpt>
<trkpt lat="44.811273400" lon="6.462761830">
  <ele>2326.100097</ele>
<time>2018-06-28T15:16:27Z</time>
</trkpt>
<trkpt lat="44.811273400" lon="6.462881690">
  <ele>2326.800048</ele>
<time>2018-06-28T15:16:33Z</time>
</trkpt>
<trkpt lat="44.811275070" lon="6.462991830">
  <ele>2325.399902</ele>
<time>2018-06-28T15:16:38Z</time>
</trkpt>
<trkpt lat="44.811278430" lon="6.463116720">
  <ele>2322.100097</ele>
<time>2018-06-28T15:16:46Z</time>
</trkpt>
<trkpt lat="44.811308430" lon="6.463218480">
  <ele>2318.199951</ele>
<time>2018-06-28T15:17:10Z</time>
</trkpt>
<trkpt lat="44.811395100" lon="6.463250160">
  <ele>2316.100097</ele>
<time>2018-06-28T15:17:19Z</time>
</trkpt>
<trkpt lat="44.811481770" lon="6.463231720">
  <ele>2314.199951</ele>
<time>2018-06-28T15:17:27Z</time>
</trkpt>
<trkpt lat="44.811565090" lon="6.463198360">
  <ele>2313.399902</ele>
<time>2018-06-28T15:17:34Z</time>
</trkpt>
<trkpt lat="44.811651760" lon="6.463215120">
  <ele>2309.399902</ele>
<time>2018-06-28T15:17:45Z</time>
</trkpt>
<trkpt lat="44.811728370" lon="6.463273460">
  <ele>2299.800048</ele>
<time>2018-06-28T15:18:03Z</time>
</trkpt>
<trkpt lat="44.811781680" lon="6.463371700">
  <ele>2296.300048</ele>
<time>2018-06-28T15:18:17Z</time>
</trkpt>
<trkpt lat="44.811798440" lon="6.463491730">
  <ele>2294.600097</ele>
<time>2018-06-28T15:18:25Z</time>
</trkpt>
<trkpt lat="44.811885110" lon="6.463503460">
  <ele>2291.899902</ele>
<time>2018-06-28T15:18:36Z</time>
</trkpt>
<trkpt lat="44.811970100" lon="6.463540010">
  <ele>2289.800048</ele>
<time>2018-06-28T15:18:59Z</time>
</trkpt>
<trkpt lat="44.812050070" lon="6.463590130">
  <ele>2288.899902</ele>
<time>2018-06-28T15:19:14Z</time>
</trkpt>
<trkpt lat="44.812050070" lon="6.463716700">
  <ele>2288.500000</ele>
<time>2018-06-28T15:19:22Z</time>
</trkpt>
<trkpt lat="44.812031790" lon="6.463828340">
  <ele>2287.399902</ele>
<time>2018-06-28T15:19:29Z</time>
</trkpt>
<trkpt lat="44.812063480" lon="6.463938480">
  <ele>2285.000000</ele>
<time>2018-06-28T15:19:37Z</time>
</trkpt>
<trkpt lat="44.812140090" lon="6.463976700">
  <ele>2281.899902</ele>
<time>2018-06-28T15:19:45Z</time>
</trkpt>
<trkpt lat="44.812225080" lon="6.463951720">
  <ele>2279.600097</ele>
<time>2018-06-28T15:19:52Z</time>
</trkpt>
<trkpt lat="44.812303370" lon="6.463908470">
  <ele>2277.899902</ele>
<time>2018-06-28T15:20:03Z</time>
</trkpt>
<trkpt lat="44.812356680" lon="6.463816780">
  <ele>2276.399902</ele>
<time>2018-06-28T15:20:10Z</time>
</trkpt>
<trkpt lat="44.812425070" lon="6.463736810">
  <ele>2272.899902</ele>
<time>2018-06-28T15:20:20Z</time>
</trkpt>
<trkpt lat="44.812505040" lon="6.463685010">
  <ele>2269.699951</ele>
<time>2018-06-28T15:20:29Z</time>
</trkpt>
<trkpt lat="44.812591700" lon="6.463685010">
  <ele>2270.500000</ele>
<time>2018-06-28T15:24:14Z</time>
</trkpt>
<trkpt lat="44.812616680" lon="6.463800010">
  <ele>2267.899902</ele>
<time>2018-06-28T15:24:28Z</time>
</trkpt>
<trkpt lat="44.812650040" lon="6.463908470">
  <ele>2265.500000</ele>
<time>2018-06-28T15:24:41Z</time>
</trkpt>
<trkpt lat="44.812738390" lon="6.463900090">
  <ele>2264.100097</ele>
<time>2018-06-28T15:24:51Z</time>
</trkpt>
<trkpt lat="44.812823380" lon="6.463903440">
  <ele>2259.300048</ele>
<time>2018-06-28T15:25:03Z</time>
</trkpt>
<trkpt lat="44.812896810" lon="6.463831700">
  <ele>2258.500000</ele>
<time>2018-06-28T15:25:20Z</time>
</trkpt>
<trkpt lat="44.812963360" lon="6.463758440">
  <ele>2255.899902</ele>
<time>2018-06-28T15:25:38Z</time>
</trkpt>
<trkpt lat="44.813045000" lon="6.463770000">
  <ele>2254.600097</ele>
<time>2018-06-28T15:25:47Z</time>
</trkpt>
<trkpt lat="44.813121780" lon="6.463825160">
  <ele>2253.300048</ele>
<time>2018-06-28T15:25:57Z</time>
</trkpt>
<trkpt lat="44.813171730" lon="6.463918360">
  <ele>2253.699951</ele>
<time>2018-06-28T15:26:12Z</time>
</trkpt>
<trkpt lat="44.813193360" lon="6.464026830">
  <ele>2254.100097</ele>
<time>2018-06-28T15:26:19Z</time>
</trkpt>
<trkpt lat="44.813218340" lon="6.464141830">
  <ele>2250.899902</ele>
<time>2018-06-28T15:26:43Z</time>
</trkpt>
<trkpt lat="44.813175080" lon="6.464251800">
  <ele>2247.699951</ele>
<time>2018-06-28T15:26:54Z</time>
</trkpt>
<trkpt lat="44.813151780" lon="6.464373330">
  <ele>2243.300048</ele>
<time>2018-06-28T15:27:10Z</time>
</trkpt>
<trkpt lat="44.813230070" lon="6.464435020">
  <ele>2239.699951</ele>
<time>2018-06-28T15:27:24Z</time>
</trkpt>
<trkpt lat="44.813306680" lon="6.464488330">
  <ele>2236.100097</ele>
<time>2018-06-28T15:27:39Z</time>
</trkpt>
<trkpt lat="44.813375080" lon="6.464563440">
  <ele>2234.000000</ele>
<time>2018-06-28T15:27:51Z</time>
</trkpt>
<trkpt lat="44.813463420" lon="6.464543490">
  <ele>2230.500000</ele>
<time>2018-06-28T15:28:04Z</time>
</trkpt>
<trkpt lat="44.813548410" lon="6.464553380">
  <ele>2226.899902</ele>
<time>2018-06-28T15:28:16Z</time>
</trkpt>
<trkpt lat="44.813630050" lon="6.464598470">
  <ele>2222.500000</ele>
<time>2018-06-28T15:28:31Z</time>
</trkpt>
<trkpt lat="44.813713370" lon="6.464586740">
  <ele>2219.199951</ele>
<time>2018-06-28T15:28:41Z</time>
</trkpt>
<trkpt lat="44.813800040" lon="6.464576680">
  <ele>2215.600097</ele>
<time>2018-06-28T15:28:55Z</time>
</trkpt>
<trkpt lat="44.813888380" lon="6.464595120">
  <ele>2211.800048</ele>
<time>2018-06-28T15:29:11Z</time>
</trkpt>
<trkpt lat="44.813973380" lon="6.464623450">
  <ele>2208.100097</ele>
<time>2018-06-28T15:29:26Z</time>
</trkpt>
<trkpt lat="44.814060050" lon="6.464651780">
  <ele>2204.300048</ele>
<time>2018-06-28T15:29:41Z</time>
</trkpt>
<trkpt lat="44.814136820" lon="6.464666700">
  <ele>2202.399902</ele>
<time>2018-06-28T15:29:56Z</time>
</trkpt>
<trkpt lat="44.814180070" lon="6.464776670">
  <ele>2200.300048</ele>
<time>2018-06-28T15:30:15Z</time>
</trkpt>
<trkpt lat="44.814205050" lon="6.464895020">
  <ele>2196.399902</ele>
<time>2018-06-28T15:30:28Z</time>
</trkpt>
<trkpt lat="44.814196670" lon="6.465011700">
  <ele>2194.100097</ele>
<time>2018-06-28T15:30:38Z</time>
</trkpt>
<trkpt lat="44.814218460" lon="6.465130050">
  <ele>2192.100097</ele>
<time>2018-06-28T15:30:46Z</time>
</trkpt>
<trkpt lat="44.814210080" lon="6.465246730">
  <ele>2191.800048</ele>
<time>2018-06-28T15:30:53Z</time>
</trkpt>
<trkpt lat="44.814221820" lon="6.465365080">
  <ele>2189.300048</ele>
<time>2018-06-28T15:31:03Z</time>
</trkpt>
<trkpt lat="44.814233380" lon="6.465485110">
  <ele>2187.100097</ele>
<time>2018-06-28T15:31:14Z</time>
</trkpt>
<trkpt lat="44.814213430" lon="6.465608490">
  <ele>2184.100097</ele>
<time>2018-06-28T15:31:27Z</time>
</trkpt>
<trkpt lat="44.814161800" lon="6.465706730">
  <ele>2181.199951</ele>
<time>2018-06-28T15:31:38Z</time>
</trkpt>
<trkpt lat="44.814091730" lon="6.465773450">
  <ele>2178.699951</ele>
<time>2018-06-28T15:31:51Z</time>
</trkpt>
<trkpt lat="44.814130120" lon="6.465881740">
  <ele>2175.699951</ele>
<time>2018-06-28T15:32:28Z</time>
</trkpt>
<trkpt lat="44.814115030" lon="6.466005120">
  <ele>2172.699951</ele>
<time>2018-06-28T15:32:40Z</time>
</trkpt>
<trkpt lat="44.814138330" lon="6.466123480">
  <ele>2171.399902</ele>
<time>2018-06-28T15:32:49Z</time>
</trkpt>
<trkpt lat="44.814130120" lon="6.466243340">
  <ele>2170.199951</ele>
<time>2018-06-28T15:32:58Z</time>
</trkpt>
<trkpt lat="44.814120060" lon="6.466368390">
  <ele>2167.000000</ele>
<time>2018-06-28T15:33:11Z</time>
</trkpt>
<trkpt lat="44.814148390" lon="6.466478370">
  <ele>2165.199951</ele>
<time>2018-06-28T15:33:24Z</time>
</trkpt>
<trkpt lat="44.814123410" lon="6.466598390">
  <ele>2162.699951</ele>
<time>2018-06-28T15:33:33Z</time>
</trkpt>
<trkpt lat="44.814148390" lon="6.466716750">
  <ele>2157.500000</ele>
<time>2018-06-28T15:33:53Z</time>
</trkpt>
<trkpt lat="44.814205050" lon="6.466810120">
  <ele>2154.199951</ele>
<time>2018-06-28T15:34:09Z</time>
</trkpt>
<trkpt lat="44.814286690" lon="6.466861750">
  <ele>2151.600097</ele>
<time>2018-06-28T15:34:21Z</time>
</trkpt>
<trkpt lat="44.814318380" lon="6.466975080">
  <ele>2148.000000</ele>
<time>2018-06-28T15:34:35Z</time>
</trkpt>
<trkpt lat="44.814373360" lon="6.467073480">
  <ele>2144.800048</ele>
<time>2018-06-28T15:34:49Z</time>
</trkpt>
<trkpt lat="44.814438410" lon="6.467155120">
  <ele>2142.500000</ele>
<time>2018-06-28T15:35:00Z</time>
</trkpt>
<trkpt lat="44.814515020" lon="6.467200050">
  <ele>2139.399902</ele>
<time>2018-06-28T15:35:14Z</time>
</trkpt>
<trkpt lat="44.814596820" lon="6.467193340">
  <ele>2137.399902</ele>
<time>2018-06-28T15:35:31Z</time>
</trkpt>
<trkpt lat="44.814683490" lon="6.467181770">
  <ele>2135.399902</ele>
<time>2018-06-28T15:35:41Z</time>
</trkpt>
<trkpt lat="44.814771670" lon="6.467186800">
  <ele>2133.300048</ele>
<time>2018-06-28T15:35:59Z</time>
</trkpt>
<trkpt lat="44.814851800" lon="6.467131820">
  <ele>2132.800048</ele>
<time>2018-06-28T15:36:07Z</time>
</trkpt>
<trkpt lat="44.814913490" lon="6.467051690">
  <ele>2131.300048</ele>
<time>2018-06-28T15:36:13Z</time>
</trkpt>
<trkpt lat="44.814991780" lon="6.467030060">
  <ele>2128.399902</ele>
<time>2018-06-28T15:36:19Z</time>
</trkpt>
<trkpt lat="44.815066710" lon="6.466986810">
  <ele>2126.000000</ele>
<time>2018-06-28T15:36:37Z</time>
</trkpt>
<trkpt lat="44.815141810" lon="6.466921770">
  <ele>2125.100097</ele>
<time>2018-06-28T15:36:45Z</time>
</trkpt>
<trkpt lat="44.815208370" lon="6.466850020">
  <ele>2124.399902</ele>
<time>2018-06-28T15:36:54Z</time>
</trkpt>
<trkpt lat="44.815286820" lon="6.466793360">
  <ele>2124.699951</ele>
<time>2018-06-28T15:37:02Z</time>
</trkpt>
<trkpt lat="44.815368460" lon="6.466753460">
  <ele>2123.600097</ele>
<time>2018-06-28T15:37:21Z</time>
</trkpt>
<trkpt lat="44.815443400" lon="6.466685060">
  <ele>2121.100097</ele>
<time>2018-06-28T15:37:48Z</time>
</trkpt>
<trkpt lat="44.815508440" lon="6.466611810">
  <ele>2119.800048</ele>
<time>2018-06-28T15:37:56Z</time>
</trkpt>
<trkpt lat="44.815561750" lon="6.466516750">
  <ele>2117.600097</ele>
<time>2018-06-28T15:38:06Z</time>
</trkpt>
<trkpt lat="44.815621760" lon="6.466428410">
  <ele>2114.899902</ele>
<time>2018-06-28T15:38:16Z</time>
</trkpt>
<trkpt lat="44.815698370" lon="6.466456740">
  <ele>2112.500000</ele>
<time>2018-06-28T15:38:27Z</time>
</trkpt>
<trkpt lat="44.815785040" lon="6.466473340">
  <ele>2109.000000</ele>
<time>2018-06-28T15:38:38Z</time>
</trkpt>
<trkpt lat="44.815871710" lon="6.466465120">
  <ele>2106.800048</ele>
<time>2018-06-28T15:39:36Z</time>
</trkpt>
<trkpt lat="44.815941780" lon="6.466536700">
  <ele>2102.100097</ele>
<time>2018-06-28T15:39:51Z</time>
</trkpt>
<trkpt lat="44.816008340" lon="6.466610130">
  <ele>2097.399902</ele>
<time>2018-06-28T15:40:04Z</time>
</trkpt>
<trkpt lat="44.816055110" lon="6.466710040">
  <ele>2093.199951</ele>
<time>2018-06-28T15:40:18Z</time>
</trkpt>
<trkpt lat="44.816083440" lon="6.466826720">
  <ele>2089.000000</ele>
<time>2018-06-28T15:40:31Z</time>
</trkpt>
<trkpt lat="44.816116800" lon="6.466941720">
  <ele>2084.800048</ele>
<time>2018-06-28T15:40:48Z</time>
</trkpt>
<trkpt lat="44.816105060" lon="6.467065100">
  <ele>2081.199951</ele>
<time>2018-06-28T15:41:01Z</time>
</trkpt>
<trkpt lat="44.816088470" lon="6.467181770">
  <ele>2079.199951</ele>
<time>2018-06-28T15:41:12Z</time>
</trkpt>
<trkpt lat="44.816056780" lon="6.467290070">
  <ele>2077.399902</ele>
<time>2018-06-28T15:41:23Z</time>
</trkpt>
<trkpt lat="44.816026780" lon="6.467406740">
  <ele>2076.699951</ele>
<time>2018-06-28T15:41:33Z</time>
</trkpt>
<trkpt lat="44.815998440" lon="6.467515040">
  <ele>2074.600097</ele>
<time>2018-06-28T15:41:41Z</time>
</trkpt>
<trkpt lat="44.815978330" lon="6.467630040">
  <ele>2072.800048</ele>
<time>2018-06-28T15:41:50Z</time>
</trkpt>
<trkpt lat="44.816013360" lon="6.467743360">
  <ele>2070.100097</ele>
<time>2018-06-28T15:42:18Z</time>
</trkpt>
<trkpt lat="44.816075060" lon="6.467800020">
  <ele>2065.399902</ele>
<time>2018-06-28T15:42:42Z</time>
</trkpt>
<trkpt lat="44.816130040" lon="6.467896750">
  <ele>2061.899902</ele>
<time>2018-06-28T15:42:55Z</time>
</trkpt>
<trkpt lat="44.816153340" lon="6.468010070">
  <ele>2060.600097</ele>
<time>2018-06-28T15:43:07Z</time>
</trkpt>
<trkpt lat="44.816206820" lon="6.468111660">
  <ele>2057.500000</ele>
<time>2018-06-28T15:43:18Z</time>
</trkpt>
<trkpt lat="44.816213360" lon="6.468231690">
  <ele>2052.199951</ele>
<time>2018-06-28T15:43:31Z</time>
</trkpt>
<trkpt lat="44.816201790" lon="6.468341660">
  <ele>2049.399902</ele>
<time>2018-06-28T15:43:40Z</time>
</trkpt>
<trkpt lat="44.816185030" lon="6.468455150">
  <ele>2046.800048</ele>
<time>2018-06-28T15:43:51Z</time>
</trkpt>
<trkpt lat="44.816233470" lon="6.468556740">
  <ele>2043.900024</ele>
<time>2018-06-28T15:44:01Z</time>
</trkpt>
<trkpt lat="44.816316790" lon="6.468590100">
  <ele>2041.300048</ele>
<time>2018-06-28T15:44:11Z</time>
</trkpt>
<trkpt lat="44.816396750" lon="6.468593450">
  <ele>2039.599975</ele>
<time>2018-06-28T15:44:19Z</time>
</trkpt>
<trkpt lat="44.816476720" lon="6.468586750">
  <ele>2037.500000</ele>
<time>2018-06-28T15:44:27Z</time>
</trkpt>
<trkpt lat="44.816556680" lon="6.468545010">
  <ele>2036.599975</ele>
<time>2018-06-28T15:44:35Z</time>
</trkpt>
<trkpt lat="44.816638490" lon="6.468513490">
  <ele>2037.199951</ele>
<time>2018-06-28T15:44:43Z</time>
</trkpt>
<trkpt lat="44.816725160" lon="6.468490020">
  <ele>2035.699951</ele>
<time>2018-06-28T15:44:52Z</time>
</trkpt>
<trkpt lat="44.816745100" lon="6.468368480">
  <ele>2037.500000</ele>
<time>2018-06-28T15:45:06Z</time>
</trkpt>
<trkpt lat="44.816768410" lon="6.468251810">
  <ele>2038.699951</ele>
<time>2018-06-28T15:45:18Z</time>
</trkpt>
<trkpt lat="44.816793380" lon="6.468140160">
  <ele>2038.900024</ele>
<time>2018-06-28T15:45:26Z</time>
</trkpt>
<trkpt lat="44.816820040" lon="6.468021810">
  <ele>2038.800048</ele>
<time>2018-06-28T15:45:34Z</time>
</trkpt>
<trkpt lat="44.816873350" lon="6.467933460">
  <ele>2039.699951</ele>
<time>2018-06-28T15:45:58Z</time>
</trkpt>
<trkpt lat="44.816900000" lon="6.467820140">
  <ele>2041.000000</ele>
<time>2018-06-28T15:46:11Z</time>
</trkpt>
<trkpt lat="44.816903360" lon="6.467696760">
  <ele>2042.000000</ele>
<time>2018-06-28T15:46:22Z</time>
</trkpt>
<trkpt lat="44.816920120" lon="6.467580080">
  <ele>2043.900024</ele>
<time>2018-06-28T15:46:32Z</time>
</trkpt>
<trkpt lat="44.816950130" lon="6.467471790">
  <ele>2046.400024</ele>
<time>2018-06-28T15:46:55Z</time>
</trkpt>
<trkpt lat="44.816973430" lon="6.467351760">
  <ele>2045.800048</ele>
<time>2018-06-28T15:47:03Z</time>
</trkpt>
<trkpt lat="44.817005110" lon="6.467233410">
  <ele>2045.599975</ele>
<time>2018-06-28T15:47:11Z</time>
</trkpt>
<trkpt lat="44.817023380" lon="6.467125110">
  <ele>2044.199951</ele>
<time>2018-06-28T15:47:19Z</time>
</trkpt>
<trkpt lat="44.817046690" lon="6.467008440">
  <ele>2042.099975</ele>
<time>2018-06-28T15:47:27Z</time>
</trkpt>
<trkpt lat="44.817058420" lon="6.466883380">
  <ele>2042.099975</ele>
<time>2018-06-28T15:47:56Z</time>
</trkpt>
<trkpt lat="44.817095130" lon="6.466775080">
  <ele>2041.500000</ele>
<time>2018-06-28T15:48:05Z</time>
</trkpt>
<trkpt lat="44.817123460" lon="6.466661760">
  <ele>2041.500000</ele>
<time>2018-06-28T15:48:11Z</time>
</trkpt>
<trkpt lat="44.817143410" lon="6.466543410">
  <ele>2042.599975</ele>
<time>2018-06-28T15:48:19Z</time>
</trkpt>
<trkpt lat="44.817151790" lon="6.466433440">
  <ele>2043.400024</ele>
<time>2018-06-28T15:48:27Z</time>
</trkpt>
<trkpt lat="44.817158330" lon="6.466320110">
  <ele>2043.900024</ele>
<time>2018-06-28T15:48:34Z</time>
</trkpt>
<trkpt lat="44.817123460" lon="6.466211820">
  <ele>2043.400024</ele>
<time>2018-06-28T15:48:41Z</time>
</trkpt>
<trkpt lat="44.817126820" lon="6.466088440">
  <ele>2042.300048</ele>
<time>2018-06-28T15:48:50Z</time>
</trkpt>
<trkpt lat="44.817141740" lon="6.465965060">
  <ele>2040.900024</ele>
<time>2018-06-28T15:49:02Z</time>
</trkpt>
<trkpt lat="44.817083400" lon="6.465870010">
  <ele>2038.199951</ele>
<time>2018-06-28T15:49:10Z</time>
</trkpt>
<trkpt lat="44.817043330" lon="6.465765070">
  <ele>2034.900024</ele>
<time>2018-06-28T15:49:18Z</time>
</trkpt>
<trkpt lat="44.817000080" lon="6.465668340">
  <ele>2033.300048</ele>
<time>2018-06-28T15:49:25Z</time>
</trkpt>
<trkpt lat="44.816958340" lon="6.465566750">
  <ele>2033.000000</ele>
<time>2018-06-28T15:49:35Z</time>
</trkpt>
<trkpt lat="44.816900000" lon="6.465473370">
  <ele>2033.400024</ele>
<time>2018-06-28T15:49:43Z</time>
</trkpt>
<trkpt lat="44.816878380" lon="6.465355020">
  <ele>2034.599975</ele>
<time>2018-06-28T15:49:53Z</time>
</trkpt>
<trkpt lat="44.816856750" lon="6.465246730">
  <ele>2035.300048</ele>
<time>2018-06-28T15:50:01Z</time>
</trkpt>
<trkpt lat="44.816856750" lon="6.465120160">
  <ele>2037.300048</ele>
<time>2018-06-28T15:50:10Z</time>
</trkpt>
<trkpt lat="44.816888440" lon="6.465013380">
  <ele>2040.800048</ele>
<time>2018-06-28T15:50:21Z</time>
</trkpt>
<trkpt lat="44.816851720" lon="6.464900050">
  <ele>2042.300048</ele>
<time>2018-06-28T15:50:29Z</time>
</trkpt>
<trkpt lat="44.816845020" lon="6.464775160">
  <ele>2044.300048</ele>
<time>2018-06-28T15:50:39Z</time>
</trkpt>
<trkpt lat="44.816791710" lon="6.464676760">
  <ele>2045.500000</ele>
<time>2018-06-28T15:50:52Z</time>
</trkpt>
<trkpt lat="44.816743430" lon="6.464576680">
  <ele>2041.800048</ele>
<time>2018-06-28T15:51:12Z</time>
</trkpt>
<trkpt lat="44.816691800" lon="6.464483470">
  <ele>2037.500000</ele>
<time>2018-06-28T15:51:26Z</time>
</trkpt>
<trkpt lat="44.816635130" lon="6.464400160">
  <ele>2034.599975</ele>
<time>2018-06-28T15:51:36Z</time>
</trkpt>
<trkpt lat="44.816558360" lon="6.464340140">
  <ele>2032.099975</ele>
<time>2018-06-28T15:51:44Z</time>
</trkpt>
<trkpt lat="44.816516780" lon="6.464245090">
  <ele>2029.400024</ele>
<time>2018-06-28T15:51:51Z</time>
</trkpt>
<trkpt lat="44.816475040" lon="6.464145010">
  <ele>2027.099975</ele>
<time>2018-06-28T15:51:58Z</time>
</trkpt>
<trkpt lat="44.816416700" lon="6.464053480">
  <ele>2024.300048</ele>
<time>2018-06-28T15:52:07Z</time>
</trkpt>
<trkpt lat="44.816383340" lon="6.463941670">
  <ele>2021.900024</ele>
<time>2018-06-28T15:52:15Z</time>
</trkpt>
<trkpt lat="44.816370100" lon="6.463825160">
  <ele>2019.699951</ele>
<time>2018-06-28T15:52:22Z</time>
</trkpt>
<trkpt lat="44.816376800" lon="6.463708480">
  <ele>2018.300048</ele>
<time>2018-06-28T15:52:30Z</time>
</trkpt>
<trkpt lat="44.816385020" lon="6.463585100">
  <ele>2015.199951</ele>
<time>2018-06-28T15:52:41Z</time>
</trkpt>
<trkpt lat="44.816395080" lon="6.463470100">
  <ele>2013.199951</ele>
<time>2018-06-28T15:52:51Z</time>
</trkpt>
<trkpt lat="44.816401780" lon="6.463346720">
  <ele>2011.900024</ele>
<time>2018-06-28T15:52:58Z</time>
</trkpt>
<trkpt lat="44.816431790" lon="6.463231720">
  <ele>2013.800048</ele>
<time>2018-06-28T15:53:06Z</time>
</trkpt>
<trkpt lat="44.816481750" lon="6.463138340">
  <ele>2012.199951</ele>
<time>2018-06-28T15:53:18Z</time>
</trkpt>
<trkpt lat="44.816506720" lon="6.463025020">
  <ele>2011.699951</ele>
<time>2018-06-28T15:53:28Z</time>
</trkpt>
<trkpt lat="44.816553490" lon="6.462931810">
  <ele>2010.900024</ele>
<time>2018-06-28T15:53:40Z</time>
</trkpt>
<trkpt lat="44.816595070" lon="6.462828380">
  <ele>2009.099975</ele>
<time>2018-06-28T15:53:49Z</time>
</trkpt>
<trkpt lat="44.816611660" lon="6.462705000">
  <ele>2006.400024</ele>
<time>2018-06-28T15:54:00Z</time>
</trkpt>
<trkpt lat="44.816551820" lon="6.462613470">
  <ele>2004.099975</ele>
<time>2018-06-28T15:54:08Z</time>
</trkpt>
<trkpt lat="44.816503370" lon="6.462510040">
  <ele>2001.699951</ele>
<time>2018-06-28T15:54:18Z</time>
</trkpt>
<trkpt lat="44.816486770" lon="6.462398390">
  <ele>2000.800048</ele>
<time>2018-06-28T15:54:28Z</time>
</trkpt>
<trkpt lat="44.816516780" lon="6.462280040">
  <ele>2001.099975</ele>
<time>2018-06-28T15:54:37Z</time>
</trkpt>
<trkpt lat="44.816530030" lon="6.462155150">
  <ele>2000.900024</ele>
<time>2018-06-28T15:54:47Z</time>
</trkpt>
<trkpt lat="44.816536730" lon="6.462038470">
  <ele>1999.400024</ele>
<time>2018-06-28T15:54:55Z</time>
</trkpt>
<trkpt lat="44.816541760" lon="6.461915090">
  <ele>1998.000000</ele>
<time>2018-06-28T15:55:03Z</time>
</trkpt>
<trkpt lat="44.816555000" lon="6.461798410">
  <ele>1996.699951</ele>
<time>2018-06-28T15:55:11Z</time>
</trkpt>
<trkpt lat="44.816538410" lon="6.461690120">
  <ele>1995.699951</ele>
<time>2018-06-28T15:55:18Z</time>
</trkpt>
<trkpt lat="44.816540080" lon="6.461563380">
  <ele>1996.599975</ele>
<time>2018-06-28T15:55:27Z</time>
</trkpt>
<trkpt lat="44.816543440" lon="6.461445030">
  <ele>1999.400024</ele>
<time>2018-06-28T15:55:35Z</time>
</trkpt>
<trkpt lat="44.816578470" lon="6.461338410">
  <ele>2000.699951</ele>
<time>2018-06-28T15:55:42Z</time>
</trkpt>
<trkpt lat="44.816545110" lon="6.461233470">
  <ele>2002.500000</ele>
<time>2018-06-28T15:55:50Z</time>
</trkpt>
<trkpt lat="44.816518460" lon="6.461121830">
  <ele>2002.800048</ele>
<time>2018-06-28T15:55:58Z</time>
</trkpt>
<trkpt lat="44.816501690" lon="6.461011690">
  <ele>2002.400024</ele>
<time>2018-06-28T15:56:06Z</time>
</trkpt>
<trkpt lat="44.816470010" lon="6.460895010">
  <ele>2002.300048</ele>
<time>2018-06-28T15:56:14Z</time>
</trkpt>
<trkpt lat="44.816410000" lon="6.460801810">
  <ele>2001.400024</ele>
<time>2018-06-28T15:56:22Z</time>
</trkpt>
<trkpt lat="44.816383340" lon="6.460696700">
  <ele>1999.699951</ele>
<time>2018-06-28T15:56:29Z</time>
</trkpt>
<trkpt lat="44.816348470" lon="6.460598460">
  <ele>1997.900024</ele>
<time>2018-06-28T15:56:35Z</time>
</trkpt>
<trkpt lat="44.816280080" lon="6.460530060">
  <ele>1997.099975</ele>
<time>2018-06-28T15:56:42Z</time>
</trkpt>
<trkpt lat="44.816235150" lon="6.460430150">
  <ele>1995.000000</ele>
<time>2018-06-28T15:56:50Z</time>
</trkpt>
<trkpt lat="44.816185030" lon="6.460340130">
  <ele>1991.599975</ele>
<time>2018-06-28T15:56:58Z</time>
</trkpt>
<trkpt lat="44.816125010" lon="6.460251780">
  <ele>1987.699951</ele>
<time>2018-06-28T15:57:06Z</time>
</trkpt>
<trkpt lat="44.816081760" lon="6.460190090">
  <ele>1986.400024</ele>
<time>2018-06-28T15:57:37Z</time>
</trkpt>
<trkpt lat="44.816020070" lon="6.460113480">
  <ele>1985.900024</ele>
<time>2018-06-28T15:57:42Z</time>
</trkpt>
<trkpt lat="44.815995090" lon="6.460003340">
  <ele>1984.900024</ele>
<time>2018-06-28T15:57:50Z</time>
</trkpt>
<trkpt lat="44.815973470" lon="6.459881810">
  <ele>1984.500000</ele>
<time>2018-06-28T15:58:01Z</time>
</trkpt>
<trkpt lat="44.815983360" lon="6.459765130">
  <ele>1979.500000</ele>
<time>2018-06-28T15:58:16Z</time>
</trkpt>
<trkpt lat="44.815985030" lon="6.459640070">
  <ele>1978.400024</ele>
<time>2018-06-28T15:58:27Z</time>
</trkpt>
<trkpt lat="44.815945140" lon="6.459530100">
  <ele>1977.400024</ele>
<time>2018-06-28T15:58:36Z</time>
</trkpt>
<trkpt lat="44.815890150" lon="6.459430020">
  <ele>1973.800048</ele>
<time>2018-06-28T15:58:50Z</time>
</trkpt>
<trkpt lat="44.815821750" lon="6.459350060">
  <ele>1972.099975</ele>
<time>2018-06-28T15:58:58Z</time>
</trkpt>
<trkpt lat="44.815753360" lon="6.459285020">
  <ele>1971.000000</ele>
<time>2018-06-28T15:59:05Z</time>
</trkpt>
<trkpt lat="44.815685130" lon="6.459206730">
  <ele>1968.699951</ele>
<time>2018-06-28T15:59:13Z</time>
</trkpt>
<trkpt lat="44.815635010" lon="6.459116710">
  <ele>1967.599975</ele>
<time>2018-06-28T15:59:20Z</time>
</trkpt>
<trkpt lat="44.815596780" lon="6.459006740">
  <ele>1967.500000</ele>
<time>2018-06-28T15:59:28Z</time>
</trkpt>
<trkpt lat="44.815586730" lon="6.458891740">
  <ele>1968.300048</ele>
<time>2018-06-28T15:59:36Z</time>
</trkpt>
<trkpt lat="44.815578340" lon="6.458775060">
  <ele>1970.300048</ele>
<time>2018-06-28T15:59:45Z</time>
</trkpt>
<trkpt lat="44.815531740" lon="6.458673470">
  <ele>1966.199951</ele>
<time>2018-06-28T15:59:53Z</time>
</trkpt>
<trkpt lat="44.815476760" lon="6.458575070">
  <ele>1965.000000</ele>
<time>2018-06-28T16:00:02Z</time>
</trkpt>
<trkpt lat="44.815426800" lon="6.458490080">
  <ele>1964.199951</ele>
<time>2018-06-28T16:00:09Z</time>
</trkpt>
<trkpt lat="44.815370140" lon="6.458395030">
  <ele>1963.500000</ele>
<time>2018-06-28T16:00:17Z</time>
</trkpt>
<trkpt lat="44.815326720" lon="6.458301820">
  <ele>1961.699951</ele>
<time>2018-06-28T16:00:27Z</time>
</trkpt>
<trkpt lat="44.815286820" lon="6.458191680">
  <ele>1960.900024</ele>
<time>2018-06-28T16:00:37Z</time>
</trkpt>
<trkpt lat="44.815223450" lon="6.458101830">
  <ele>1961.900024</ele>
<time>2018-06-28T16:01:07Z</time>
</trkpt>
<trkpt lat="44.815170150" lon="6.458001750">
  <ele>1960.900024</ele>
<time>2018-06-28T16:01:17Z</time>
</trkpt>
<trkpt lat="44.815123370" lon="6.457895130">
  <ele>1957.099975</ele>
<time>2018-06-28T16:01:30Z</time>
</trkpt>
<trkpt lat="44.815098400" lon="6.457778450">
  <ele>1954.400024</ele>
<time>2018-06-28T16:01:41Z</time>
</trkpt>
<trkpt lat="44.815073420" lon="6.457661780">
  <ele>1953.099975</ele>
<time>2018-06-28T16:01:51Z</time>
</trkpt>
<trkpt lat="44.815031680" lon="6.457550130">
  <ele>1949.400024</ele>
<time>2018-06-28T16:02:05Z</time>
</trkpt>
<trkpt lat="44.815041730" lon="6.457428420">
  <ele>1946.900024</ele>
<time>2018-06-28T16:02:36Z</time>
</trkpt>
<trkpt lat="44.815046760" lon="6.457303370">
  <ele>1946.800048</ele>
<time>2018-06-28T16:02:48Z</time>
</trkpt>
<trkpt lat="44.815046760" lon="6.457180150">
  <ele>1946.000000</ele>
<time>2018-06-28T16:03:05Z</time>
</trkpt>
<trkpt lat="44.814978370" lon="6.457101700">
  <ele>1945.500000</ele>
<time>2018-06-28T16:03:16Z</time>
</trkpt>
<trkpt lat="44.814953390" lon="6.456985020">
  <ele>1945.800048</ele>
<time>2018-06-28T16:03:28Z</time>
</trkpt>
<trkpt lat="44.814920030" lon="6.456870020">
  <ele>1943.699951</ele>
<time>2018-06-28T16:03:43Z</time>
</trkpt>
<trkpt lat="44.814891700" lon="6.456750160">
  <ele>1942.699951</ele>
<time>2018-06-28T16:03:55Z</time>
</trkpt>
<trkpt lat="44.814915000" lon="6.456630130">
  <ele>1941.199951</ele>
<time>2018-06-28T16:04:08Z</time>
</trkpt>
<trkpt lat="44.814915000" lon="6.456506750">
  <ele>1940.699951</ele>
<time>2018-06-28T16:04:18Z</time>
</trkpt>
<trkpt lat="44.814893370" lon="6.456398460">
  <ele>1940.000000</ele>
<time>2018-06-28T16:04:26Z</time>
</trkpt>
<trkpt lat="44.814851800" lon="6.456290160">
  <ele>1939.400024</ele>
<time>2018-06-28T16:04:34Z</time>
</trkpt>
<trkpt lat="44.814841740" lon="6.456178350">
  <ele>1936.800048</ele>
<time>2018-06-28T16:04:43Z</time>
</trkpt>
<trkpt lat="44.814808380" lon="6.456096710">
  <ele>1934.500000</ele>
<time>2018-06-28T16:04:49Z</time>
</trkpt>
<trkpt lat="44.814795140" lon="6.455981710">
  <ele>1932.400024</ele>
<time>2018-06-28T16:04:58Z</time>
</trkpt>
<trkpt lat="44.814746690" lon="6.455893360">
  <ele>1931.300048</ele>
<time>2018-06-28T16:05:06Z</time>
</trkpt>
<trkpt lat="44.814691710" lon="6.455806690">
  <ele>1930.199951</ele>
<time>2018-06-28T16:05:14Z</time>
</trkpt>
<trkpt lat="44.814648460" lon="6.455706780">
  <ele>1928.599975</ele>
<time>2018-06-28T16:05:22Z</time>
</trkpt>
<trkpt lat="44.814610070" lon="6.455606700">
  <ele>1927.699951</ele>
<time>2018-06-28T16:05:28Z</time>
</trkpt>
<trkpt lat="44.814566820" lon="6.455515000">
  <ele>1927.000000</ele>
<time>2018-06-28T16:05:34Z</time>
</trkpt>
<trkpt lat="44.814493390" lon="6.455446770">
  <ele>1925.699951</ele>
<time>2018-06-28T16:05:41Z</time>
</trkpt>
<trkpt lat="44.814418460" lon="6.455395140">
  <ele>1925.900024</ele>
<time>2018-06-28T16:05:49Z</time>
</trkpt>
<trkpt lat="44.814371690" lon="6.455300090">
  <ele>1926.000000</ele>
<time>2018-06-28T16:05:56Z</time>
</trkpt>
<trkpt lat="44.814310160" lon="6.455241750">
  <ele>1925.699951</ele>
<time>2018-06-28T16:06:02Z</time>
</trkpt>
<trkpt lat="44.814268420" lon="6.455143350">
  <ele>1925.199951</ele>
<time>2018-06-28T16:06:09Z</time>
</trkpt>
<trkpt lat="44.814225000" lon="6.455040080">
  <ele>1923.699951</ele>
<time>2018-06-28T16:06:17Z</time>
</trkpt>
<trkpt lat="44.814170020" lon="6.454945030">
  <ele>1923.400024</ele>
<time>2018-06-28T16:06:27Z</time>
</trkpt>
<trkpt lat="44.814108490" lon="6.454871780">
  <ele>1923.000000</ele>
<time>2018-06-28T16:06:35Z</time>
</trkpt>
<trkpt lat="44.814056690" lon="6.454780080">
  <ele>1921.900024</ele>
<time>2018-06-28T16:06:43Z</time>
</trkpt>
<trkpt lat="44.814003380" lon="6.454700110">
  <ele>1921.500000</ele>
<time>2018-06-28T16:06:49Z</time>
</trkpt>
<trkpt lat="44.813940020" lon="6.454611770">
  <ele>1921.599975</ele>
<time>2018-06-28T16:06:57Z</time>
</trkpt>
<trkpt lat="44.813920070" lon="6.454488390">
  <ele>1919.800048</ele>
<time>2018-06-28T16:07:06Z</time>
</trkpt>
<trkpt lat="44.813901800" lon="6.454376740">
  <ele>1921.699951</ele>
<time>2018-06-28T16:07:14Z</time>
</trkpt>
<trkpt lat="44.813868440" lon="6.454270120">
  <ele>1922.699951</ele>
<time>2018-06-28T16:07:22Z</time>
</trkpt>
<trkpt lat="44.813855020" lon="6.454145070">
  <ele>1923.000000</ele>
<time>2018-06-28T16:07:31Z</time>
</trkpt>
<trkpt lat="44.813858380" lon="6.454025040">
  <ele>1923.199951</ele>
<time>2018-06-28T16:07:39Z</time>
</trkpt>
<trkpt lat="44.813846810" lon="6.453908360">
  <ele>1921.500000</ele>
<time>2018-06-28T16:07:51Z</time>
</trkpt>
<trkpt lat="44.813833400" lon="6.453795040">
  <ele>1919.400024</ele>
<time>2018-06-28T16:08:04Z</time>
</trkpt>
<trkpt lat="44.813803390" lon="6.453678360">
  <ele>1917.900024</ele>
<time>2018-06-28T16:08:13Z</time>
</trkpt>
<trkpt lat="44.813758470" lon="6.453571740">
  <ele>1914.000000</ele>
<time>2018-06-28T16:08:23Z</time>
</trkpt>
<trkpt lat="44.813841780" lon="6.453536710">
  <ele>1904.500000</ele>
<time>2018-06-28T16:08:48Z</time>
</trkpt>
<trkpt lat="44.813925100" lon="6.453561680">
  <ele>1902.400024</ele>
<time>2018-06-28T16:08:57Z</time>
</trkpt>
<trkpt lat="44.814006740" lon="6.453598400">
  <ele>1899.900024</ele>
<time>2018-06-28T16:09:07Z</time>
</trkpt>
<trkpt lat="44.814006740" lon="6.453483400">
  <ele>1895.699951</ele>
<time>2018-06-28T16:09:23Z</time>
</trkpt>
<trkpt lat="44.813973380" lon="6.453373430">
  <ele>1893.599975</ele>
<time>2018-06-28T16:09:31Z</time>
</trkpt>
<trkpt lat="44.813921740" lon="6.453275020">
  <ele>1891.099975</ele>
<time>2018-06-28T16:09:38Z</time>
</trkpt>
<trkpt lat="44.813883360" lon="6.453176790">
  <ele>1890.800048</ele>
<time>2018-06-28T16:09:45Z</time>
</trkpt>
<trkpt lat="44.813833400" lon="6.453086770">
  <ele>1890.699951</ele>
<time>2018-06-28T16:09:52Z</time>
</trkpt>
<trkpt lat="44.813820160" lon="6.452966740">
  <ele>1889.800048</ele>
<time>2018-06-28T16:10:01Z</time>
</trkpt>
<trkpt lat="44.813850000" lon="6.452851740">
  <ele>1889.400024</ele>
<time>2018-06-28T16:10:09Z</time>
</trkpt>
<trkpt lat="44.813848490" lon="6.452735060">
  <ele>1888.699951</ele>
<time>2018-06-28T16:10:17Z</time>
</trkpt>
<trkpt lat="44.813928450" lon="6.452758360">
  <ele>1890.400024</ele>
<time>2018-06-28T16:10:51Z</time>
</trkpt>
<trkpt lat="44.813985110" lon="6.452856770">
  <ele>1890.500000</ele>
<time>2018-06-28T16:10:58Z</time>
</trkpt>
<trkpt lat="44.814031720" lon="6.452961710">
  <ele>1889.300048</ele>
<time>2018-06-28T16:11:07Z</time>
</trkpt>
<trkpt lat="44.814096760" lon="6.453045020">
  <ele>1888.699951</ele>
<time>2018-06-28T16:11:15Z</time>
</trkpt>
<trkpt lat="44.814161800" lon="6.453111740">
  <ele>1888.199951</ele>
<time>2018-06-28T16:11:23Z</time>
</trkpt>
<trkpt lat="44.814230030" lon="6.453193380">
  <ele>1887.800048</ele>
<time>2018-06-28T16:11:32Z</time>
</trkpt>
<trkpt lat="44.814285020" lon="6.453291790">
  <ele>1885.699951</ele>
<time>2018-06-28T16:11:41Z</time>
</trkpt>
<trkpt lat="44.814338490" lon="6.453390020">
  <ele>1882.900024</ele>
<time>2018-06-28T16:11:50Z</time>
</trkpt>
<trkpt lat="44.814413430" lon="6.453448360">
  <ele>1881.300048</ele>
<time>2018-06-28T16:11:57Z</time>
</trkpt>
<trkpt lat="44.814456680" lon="6.453541740">
  <ele>1879.500000</ele>
<time>2018-06-28T16:12:03Z</time>
</trkpt>
<trkpt lat="44.814506800" lon="6.453636790">
  <ele>1876.699951</ele>
<time>2018-06-28T16:12:11Z</time>
</trkpt>
<trkpt lat="44.814541670" lon="6.453746760">
  <ele>1876.599975</ele>
<time>2018-06-28T16:12:19Z</time>
</trkpt>
<trkpt lat="44.814600010" lon="6.453820010">
  <ele>1876.500000</ele>
<time>2018-06-28T16:12:27Z</time>
</trkpt>
<trkpt lat="44.814675110" lon="6.453886730">
  <ele>1874.199951</ele>
<time>2018-06-28T16:12:36Z</time>
</trkpt>
<trkpt lat="44.814733450" lon="6.453978430">
  <ele>1873.099975</ele>
<time>2018-06-28T16:12:44Z</time>
</trkpt>
<trkpt lat="44.814790110" lon="6.454065100">
  <ele>1872.400024</ele>
<time>2018-06-28T16:12:52Z</time>
</trkpt>
<trkpt lat="44.814850120" lon="6.454155120">
  <ele>1871.300048</ele>
<time>2018-06-28T16:13:00Z</time>
</trkpt>
<trkpt lat="44.814920030" lon="6.454230060">
  <ele>1871.000000</ele>
<time>2018-06-28T16:13:09Z</time>
</trkpt>
<trkpt lat="44.814945010" lon="6.454340030">
  <ele>1870.800048</ele>
<time>2018-06-28T16:13:16Z</time>
</trkpt>
<trkpt lat="44.814990100" lon="6.454446810">
  <ele>1870.599975</ele>
<time>2018-06-28T16:13:24Z</time>
</trkpt>
<trkpt lat="44.815066710" lon="6.454500120">
  <ele>1869.000000</ele>
<time>2018-06-28T16:13:34Z</time>
</trkpt>
<trkpt lat="44.815146680" lon="6.454551760">
  <ele>1868.300048</ele>
<time>2018-06-28T16:13:43Z</time>
</trkpt>
<trkpt lat="44.815223450" lon="6.454588470">
  <ele>1868.099975</ele>
<time>2018-06-28T16:13:53Z</time>
</trkpt>
<trkpt lat="44.815288330" lon="6.454673460">
  <ele>1867.000000</ele>
<time>2018-06-28T16:14:00Z</time>
</trkpt>
<trkpt lat="44.815360080" lon="6.454735150">
  <ele>1867.400024</ele>
<time>2018-06-28T16:14:07Z</time>
</trkpt>
<trkpt lat="44.815436690" lon="6.454798350">
  <ele>1867.099975</ele>
<time>2018-06-28T16:14:17Z</time>
</trkpt>
<trkpt lat="44.815493350" lon="6.454881670">
  <ele>1866.099975</ele>
<time>2018-06-28T16:14:25Z</time>
</trkpt>
<trkpt lat="44.815550010" lon="6.454970010">
  <ele>1864.099975</ele>
<time>2018-06-28T16:14:33Z</time>
</trkpt>
<trkpt lat="44.815590080" lon="6.455076800">
  <ele>1863.199951</ele>
<time>2018-06-28T16:14:40Z</time>
</trkpt>
<trkpt lat="44.815626790" lon="6.455176710">
  <ele>1862.500000</ele>
<time>2018-06-28T16:14:48Z</time>
</trkpt>
<trkpt lat="44.815695020" lon="6.455253490">
  <ele>1861.699951</ele>
<time>2018-06-28T16:14:56Z</time>
</trkpt>
<trkpt lat="44.815775150" lon="6.455303440">
  <ele>1860.699951</ele>
<time>2018-06-28T16:15:07Z</time>
</trkpt>
<trkpt lat="44.815848410" lon="6.455366810">
  <ele>1859.599975</ele>
<time>2018-06-28T16:15:15Z</time>
</trkpt>
<trkpt lat="44.815918480" lon="6.455443420">
  <ele>1858.300048</ele>
<time>2018-06-28T16:15:24Z</time>
</trkpt>
<trkpt lat="44.815983360" lon="6.455518360">
  <ele>1857.199951</ele>
<time>2018-06-28T16:15:32Z</time>
</trkpt>
<trkpt lat="44.816038340" lon="6.455615080">
  <ele>1855.400024</ele>
<time>2018-06-28T16:15:41Z</time>
</trkpt>
<trkpt lat="44.816118470" lon="6.455670070">
  <ele>1855.699951</ele>
<time>2018-06-28T16:15:52Z</time>
</trkpt>
<trkpt lat="44.816201790" lon="6.455666720">
  <ele>1855.199951</ele>
<time>2018-06-28T16:15:59Z</time>
</trkpt>
<trkpt lat="44.816283430" lon="6.455641740">
  <ele>1853.599975</ele>
<time>2018-06-28T16:16:07Z</time>
</trkpt>
<trkpt lat="44.816365070" lon="6.455635030">
  <ele>1852.099975</ele>
<time>2018-06-28T16:16:15Z</time>
</trkpt>
<trkpt lat="44.816448390" lon="6.455653470">
  <ele>1851.599975</ele>
<time>2018-06-28T16:16:23Z</time>
</trkpt>
<trkpt lat="44.816535050" lon="6.455636710">
  <ele>1851.400024</ele>
<time>2018-06-28T16:16:36Z</time>
</trkpt>
<trkpt lat="44.816571770" lon="6.455523390">
  <ele>1851.199951</ele>
<time>2018-06-28T16:16:44Z</time>
</trkpt>
<trkpt lat="44.816603450" lon="6.455405030">
  <ele>1850.199951</ele>
<time>2018-06-28T16:17:03Z</time>
</trkpt>
<trkpt lat="44.816620050" lon="6.455438390">
  <ele>1850.199951</ele>
<time>2018-06-28T16:18:03Z</time>
</trkpt>
<trkpt lat="44.816620050" lon="6.455438390">
  <ele>1850.199951</ele>
<time>2018-06-28T16:18:03Z</time>
</trkpt>
<trkpt lat="44.816603450" lon="6.455405030">
  <ele>1850.100000</ele>
<time>2018-06-28T16:17:03Z</time>
</trkpt>
<trkpt lat="44.816620050" lon="6.455438390">
  <ele>1850.100000</ele>
<time>2018-06-28T16:18:03Z</time>
</trkpt>
<trkpt lat="44.816620050" lon="6.455438390">
  <ele>1850.100000</ele>
<time>2018-06-28T16:18:03Z</time>
</trkpt>
<trkpt lat="44.816620050" lon="6.455438390">
  <ele>1850.100000</ele>
<time>2018-06-28T16:18:09Z</time>
</trkpt>
</trkseg>
</trk>
</gpx>
